<?xml version="1.0" encoding="UTF-8" standalone="no" ?>
<gpx xmlns="http://www.topografix.com/GPX/1/1" xmlns:xsi="http://www.w3.org/2001/XMLSchema-instance" xsi:schemaLocation="http://www.topografix.com/GPX/1/1 http://www.topografix.com/GPX/1/1/gpx.xsd" version="1.1" creator="VisuGPX - https://www.visugpx.com">
  <metadata>
    <name>LORGUES BOIS DE STE FOY ET SARGLES</name>
    <desc><![CDATA[comment ...]]></desc>
  </metadata>
  <trk>
    <name><![CDATA[4 juin 2019]]></name>
    <cmt><![CDATA[09:14:22]]></cmt>
    <desc><![CDATA[comment ...]]></desc>
    <trkseg>
      <trkpt lat="43.51069" lon="6.30469">
        <ele>267</ele>
        <time>2019-06-04T07:14:19Z</time>
      </trkpt>
      <trkpt lat="43.51069" lon="6.30469">
        <ele>267</ele>
        <time>2019-06-04T07:14:20Z</time>
      </trkpt>
      <trkpt lat="43.51065" lon="6.30475">
        <ele>267</ele>
        <time>2019-06-04T07:14:57Z</time>
      </trkpt>
      <trkpt lat="43.51061" lon="6.30495">
        <ele>265</ele>
        <time>2019-06-04T07:15:23Z</time>
      </trkpt>
      <trkpt lat="43.5106" lon="6.305">
        <ele>265</ele>
        <time>2019-06-04T07:15:27Z</time>
      </trkpt>
      <trkpt lat="43.51055" lon="6.305">
        <ele>264</ele>
        <time>2019-06-04T07:15:51Z</time>
      </trkpt>
      <trkpt lat="43.5105" lon="6.30505">
        <ele>264</ele>
        <time>2019-06-04T07:15:58Z</time>
      </trkpt>
      <trkpt lat="43.51045" lon="6.30516">
        <ele>263</ele>
        <time>2019-06-04T07:16:12Z</time>
      </trkpt>
      <trkpt lat="43.51042" lon="6.3052">
        <ele>263</ele>
        <time>2019-06-04T07:16:17Z</time>
      </trkpt>
      <trkpt lat="43.5104" lon="6.30526">
        <ele>262</ele>
        <time>2019-06-04T07:16:23Z</time>
      </trkpt>
      <trkpt lat="43.51032" lon="6.30536">
        <ele>262</ele>
        <time>2019-06-04T07:16:34Z</time>
      </trkpt>
      <trkpt lat="43.51029" lon="6.3054">
        <ele>262</ele>
        <time>2019-06-04T07:16:38Z</time>
      </trkpt>
      <trkpt lat="43.51027" lon="6.30544">
        <ele>262</ele>
        <time>2019-06-04T07:16:41Z</time>
      </trkpt>
      <trkpt lat="43.51023" lon="6.30549">
        <ele>262</ele>
        <time>2019-06-04T07:16:44Z</time>
      </trkpt>
      <trkpt lat="43.51019" lon="6.30551">
        <ele>262</ele>
        <time>2019-06-04T07:16:49Z</time>
      </trkpt>
      <trkpt lat="43.50997" lon="6.30589">
        <ele>262</ele>
        <time>2019-06-04T07:17:20Z</time>
      </trkpt>
      <trkpt lat="43.50993" lon="6.30596">
        <ele>262</ele>
        <time>2019-06-04T07:17:23Z</time>
      </trkpt>
      <trkpt lat="43.50989" lon="6.30601">
        <ele>262</ele>
        <time>2019-06-04T07:17:27Z</time>
      </trkpt>
      <trkpt lat="43.50983" lon="6.30604">
        <ele>262</ele>
        <time>2019-06-04T07:17:33Z</time>
      </trkpt>
      <trkpt lat="43.50978" lon="6.30608">
        <ele>262</ele>
        <time>2019-06-04T07:17:37Z</time>
      </trkpt>
      <trkpt lat="43.50978" lon="6.30613">
        <ele>262</ele>
        <time>2019-06-04T07:17:41Z</time>
      </trkpt>
      <trkpt lat="43.50969" lon="6.30634">
        <ele>262</ele>
        <time>2019-06-04T07:17:57Z</time>
      </trkpt>
      <trkpt lat="43.50965" lon="6.30644">
        <ele>262</ele>
        <time>2019-06-04T07:18:06Z</time>
      </trkpt>
      <trkpt lat="43.50959" lon="6.30665">
        <ele>262</ele>
        <time>2019-06-04T07:18:19Z</time>
      </trkpt>
      <trkpt lat="43.50949" lon="6.3069">
        <ele>263</ele>
        <time>2019-06-04T07:18:40Z</time>
      </trkpt>
      <trkpt lat="43.50938" lon="6.30723">
        <ele>263</ele>
        <time>2019-06-04T07:19:07Z</time>
      </trkpt>
      <trkpt lat="43.50933" lon="6.30731">
        <ele>263</ele>
        <time>2019-06-04T07:19:11Z</time>
      </trkpt>
      <trkpt lat="43.50931" lon="6.30737">
        <ele>263</ele>
        <time>2019-06-04T07:19:15Z</time>
      </trkpt>
      <trkpt lat="43.50928" lon="6.30742">
        <ele>263</ele>
        <time>2019-06-04T07:19:19Z</time>
      </trkpt>
      <trkpt lat="43.50924" lon="6.30753">
        <ele>263</ele>
        <time>2019-06-04T07:19:27Z</time>
      </trkpt>
      <trkpt lat="43.50921" lon="6.30758">
        <ele>263</ele>
        <time>2019-06-04T07:19:29Z</time>
      </trkpt>
      <trkpt lat="43.50928" lon="6.30763">
        <ele>263</ele>
        <time>2019-06-04T07:19:49Z</time>
      </trkpt>
      <trkpt lat="43.50931" lon="6.30765">
        <ele>263</ele>
        <time>2019-06-04T07:19:58Z</time>
      </trkpt>
      <trkpt lat="43.50935" lon="6.30761">
        <ele>263</ele>
        <time>2019-06-04T07:20:04Z</time>
      </trkpt>
      <trkpt lat="43.50947" lon="6.30761">
        <ele>264</ele>
        <time>2019-06-04T07:20:18Z</time>
      </trkpt>
      <trkpt lat="43.5095" lon="6.3076">
        <ele>264</ele>
        <time>2019-06-04T07:20:23Z</time>
      </trkpt>
      <trkpt lat="43.50954" lon="6.30762">
        <ele>264</ele>
        <time>2019-06-04T07:20:29Z</time>
      </trkpt>
      <trkpt lat="43.50961" lon="6.30757">
        <ele>264</ele>
        <time>2019-06-04T07:20:41Z</time>
      </trkpt>
      <trkpt lat="43.50966" lon="6.30757">
        <ele>264</ele>
        <time>2019-06-04T07:20:46Z</time>
      </trkpt>
      <trkpt lat="43.5097" lon="6.30757">
        <ele>264</ele>
        <time>2019-06-04T07:20:54Z</time>
      </trkpt>
      <trkpt lat="43.50974" lon="6.30757">
        <ele>264</ele>
        <time>2019-06-04T07:20:59Z</time>
      </trkpt>
      <trkpt lat="43.50982" lon="6.30757">
        <ele>264</ele>
        <time>2019-06-04T07:21:07Z</time>
      </trkpt>
      <trkpt lat="43.50986" lon="6.30757">
        <ele>265</ele>
        <time>2019-06-04T07:21:11Z</time>
      </trkpt>
      <trkpt lat="43.50994" lon="6.30764">
        <ele>265</ele>
        <time>2019-06-04T07:21:22Z</time>
      </trkpt>
      <trkpt lat="43.51002" lon="6.30768">
        <ele>265</ele>
        <time>2019-06-04T07:21:30Z</time>
      </trkpt>
      <trkpt lat="43.51014" lon="6.30777">
        <ele>265</ele>
        <time>2019-06-04T07:21:49Z</time>
      </trkpt>
      <trkpt lat="43.51019" lon="6.30778">
        <ele>266</ele>
        <time>2019-06-04T07:21:53Z</time>
      </trkpt>
      <trkpt lat="43.51028" lon="6.30785">
        <ele>266</ele>
        <time>2019-06-04T07:21:59Z</time>
      </trkpt>
      <trkpt lat="43.51034" lon="6.30789">
        <ele>266</ele>
        <time>2019-06-04T07:22:06Z</time>
      </trkpt>
      <trkpt lat="43.51038" lon="6.30792">
        <ele>266</ele>
        <time>2019-06-04T07:22:10Z</time>
      </trkpt>
      <trkpt lat="43.51041" lon="6.30795">
        <ele>266</ele>
        <time>2019-06-04T07:22:15Z</time>
      </trkpt>
      <trkpt lat="43.51044" lon="6.30797">
        <ele>266</ele>
        <time>2019-06-04T07:22:18Z</time>
      </trkpt>
      <trkpt lat="43.51052" lon="6.30801">
        <ele>267</ele>
        <time>2019-06-04T07:22:27Z</time>
      </trkpt>
      <trkpt lat="43.5106" lon="6.30814">
        <ele>267</ele>
        <time>2019-06-04T07:22:38Z</time>
      </trkpt>
      <trkpt lat="43.51063" lon="6.30819">
        <ele>267</ele>
        <time>2019-06-04T07:22:45Z</time>
      </trkpt>
      <trkpt lat="43.51069" lon="6.30828">
        <ele>267</ele>
        <time>2019-06-04T07:22:53Z</time>
      </trkpt>
      <trkpt lat="43.51072" lon="6.30832">
        <ele>268</ele>
        <time>2019-06-04T07:22:58Z</time>
      </trkpt>
      <trkpt lat="43.51073" lon="6.30837">
        <ele>268</ele>
        <time>2019-06-04T07:23:02Z</time>
      </trkpt>
      <trkpt lat="43.51075" lon="6.30842">
        <ele>268</ele>
        <time>2019-06-04T07:23:06Z</time>
      </trkpt>
      <trkpt lat="43.51077" lon="6.30848">
        <ele>268</ele>
        <time>2019-06-04T07:23:09Z</time>
      </trkpt>
      <trkpt lat="43.51079" lon="6.30852">
        <ele>268</ele>
        <time>2019-06-04T07:23:17Z</time>
      </trkpt>
      <trkpt lat="43.51081" lon="6.30864">
        <ele>268</ele>
        <time>2019-06-04T07:23:27Z</time>
      </trkpt>
      <trkpt lat="43.51084" lon="6.30885">
        <ele>269</ele>
        <time>2019-06-04T07:23:42Z</time>
      </trkpt>
      <trkpt lat="43.51082" lon="6.30891">
        <ele>269</ele>
        <time>2019-06-04T07:23:48Z</time>
      </trkpt>
      <trkpt lat="43.51083" lon="6.30902">
        <ele>269</ele>
        <time>2019-06-04T07:23:56Z</time>
      </trkpt>
      <trkpt lat="43.51081" lon="6.30913">
        <ele>270</ele>
        <time>2019-06-04T07:24:10Z</time>
      </trkpt>
      <trkpt lat="43.51079" lon="6.30919">
        <ele>270</ele>
        <time>2019-06-04T07:24:20Z</time>
      </trkpt>
      <trkpt lat="43.51075" lon="6.30933">
        <ele>270</ele>
        <time>2019-06-04T07:24:32Z</time>
      </trkpt>
      <trkpt lat="43.51073" lon="6.30941">
        <ele>270</ele>
        <time>2019-06-04T07:24:41Z</time>
      </trkpt>
      <trkpt lat="43.51072" lon="6.30947">
        <ele>270</ele>
        <time>2019-06-04T07:24:48Z</time>
      </trkpt>
      <trkpt lat="43.5107" lon="6.30961">
        <ele>271</ele>
        <time>2019-06-04T07:24:59Z</time>
      </trkpt>
      <trkpt lat="43.51069" lon="6.30966">
        <ele>271</ele>
        <time>2019-06-04T07:25:08Z</time>
      </trkpt>
      <trkpt lat="43.5107" lon="6.30978">
        <ele>271</ele>
        <time>2019-06-04T07:25:22Z</time>
      </trkpt>
      <trkpt lat="43.51069" lon="6.30984">
        <ele>272</ele>
        <time>2019-06-04T07:25:26Z</time>
      </trkpt>
      <trkpt lat="43.51068" lon="6.30992">
        <ele>272</ele>
        <time>2019-06-04T07:25:30Z</time>
      </trkpt>
      <trkpt lat="43.51066" lon="6.30999">
        <ele>272</ele>
        <time>2019-06-04T07:25:37Z</time>
      </trkpt>
      <trkpt lat="43.51061" lon="6.3101">
        <ele>272</ele>
        <time>2019-06-04T07:25:48Z</time>
      </trkpt>
      <trkpt lat="43.51063" lon="6.31016">
        <ele>272</ele>
        <time>2019-06-04T07:26:02Z</time>
      </trkpt>
      <trkpt lat="43.51065" lon="6.3102">
        <ele>273</ele>
        <time>2019-06-04T07:26:08Z</time>
      </trkpt>
      <trkpt lat="43.51064" lon="6.31025">
        <ele>273</ele>
        <time>2019-06-04T07:26:18Z</time>
      </trkpt>
      <trkpt lat="43.51069" lon="6.3104">
        <ele>274</ele>
        <time>2019-06-04T07:26:34Z</time>
      </trkpt>
      <trkpt lat="43.51071" lon="6.31051">
        <ele>274</ele>
        <time>2019-06-04T07:26:58Z</time>
      </trkpt>
      <trkpt lat="43.51073" lon="6.31068">
        <ele>275</ele>
        <time>2019-06-04T07:27:10Z</time>
      </trkpt>
      <trkpt lat="43.5108" lon="6.31076">
        <ele>275</ele>
        <time>2019-06-04T07:27:20Z</time>
      </trkpt>
      <trkpt lat="43.51082" lon="6.31086">
        <ele>276</ele>
        <time>2019-06-04T07:27:28Z</time>
      </trkpt>
      <trkpt lat="43.51089" lon="6.31108">
        <ele>276</ele>
        <time>2019-06-04T07:27:46Z</time>
      </trkpt>
      <trkpt lat="43.51091" lon="6.31113">
        <ele>277</ele>
        <time>2019-06-04T07:27:51Z</time>
      </trkpt>
      <trkpt lat="43.51091" lon="6.31119">
        <ele>277</ele>
        <time>2019-06-04T07:27:56Z</time>
      </trkpt>
      <trkpt lat="43.51096" lon="6.31141">
        <ele>278</ele>
        <time>2019-06-04T07:28:18Z</time>
      </trkpt>
      <trkpt lat="43.51099" lon="6.31158">
        <ele>278</ele>
        <time>2019-06-04T07:28:36Z</time>
      </trkpt>
      <trkpt lat="43.51104" lon="6.31182">
        <ele>279</ele>
        <time>2019-06-04T07:28:54Z</time>
      </trkpt>
      <trkpt lat="43.51106" lon="6.31194">
        <ele>279</ele>
        <time>2019-06-04T07:29:03Z</time>
      </trkpt>
      <trkpt lat="43.51109" lon="6.31217">
        <ele>280</ele>
        <time>2019-06-04T07:29:22Z</time>
      </trkpt>
      <trkpt lat="43.51108" lon="6.31222">
        <ele>280</ele>
        <time>2019-06-04T07:29:25Z</time>
      </trkpt>
      <trkpt lat="43.5111" lon="6.31233">
        <ele>280</ele>
        <time>2019-06-04T07:29:35Z</time>
      </trkpt>
      <trkpt lat="43.51109" lon="6.31244">
        <ele>281</ele>
        <time>2019-06-04T07:29:44Z</time>
      </trkpt>
      <trkpt lat="43.51108" lon="6.31257">
        <ele>281</ele>
        <time>2019-06-04T07:29:51Z</time>
      </trkpt>
      <trkpt lat="43.5111" lon="6.31268">
        <ele>281</ele>
        <time>2019-06-04T07:30:01Z</time>
      </trkpt>
      <trkpt lat="43.51116" lon="6.31284">
        <ele>282</ele>
        <time>2019-06-04T07:30:15Z</time>
      </trkpt>
      <trkpt lat="43.51121" lon="6.31298">
        <ele>282</ele>
        <time>2019-06-04T07:30:25Z</time>
      </trkpt>
      <trkpt lat="43.51122" lon="6.31303">
        <ele>282</ele>
        <time>2019-06-04T07:30:30Z</time>
      </trkpt>
      <trkpt lat="43.51123" lon="6.31315">
        <ele>283</ele>
        <time>2019-06-04T07:30:41Z</time>
      </trkpt>
      <trkpt lat="43.51123" lon="6.3132">
        <ele>283</ele>
        <time>2019-06-04T07:30:44Z</time>
      </trkpt>
      <trkpt lat="43.51124" lon="6.31327">
        <ele>283</ele>
        <time>2019-06-04T07:30:50Z</time>
      </trkpt>
      <trkpt lat="43.51124" lon="6.31337">
        <ele>283</ele>
        <time>2019-06-04T07:30:59Z</time>
      </trkpt>
      <trkpt lat="43.51131" lon="6.31369">
        <ele>284</ele>
        <time>2019-06-04T07:31:22Z</time>
      </trkpt>
      <trkpt lat="43.51134" lon="6.31373">
        <ele>284</ele>
        <time>2019-06-04T07:31:27Z</time>
      </trkpt>
      <trkpt lat="43.51135" lon="6.31378">
        <ele>284</ele>
        <time>2019-06-04T07:31:31Z</time>
      </trkpt>
      <trkpt lat="43.51144" lon="6.31403">
        <ele>285</ele>
        <time>2019-06-04T07:31:55Z</time>
      </trkpt>
      <trkpt lat="43.51153" lon="6.31423">
        <ele>286</ele>
        <time>2019-06-04T07:32:12Z</time>
      </trkpt>
      <trkpt lat="43.51157" lon="6.31434">
        <ele>286</ele>
        <time>2019-06-04T07:32:19Z</time>
      </trkpt>
      <trkpt lat="43.51159" lon="6.31439">
        <ele>286</ele>
        <time>2019-06-04T07:32:23Z</time>
      </trkpt>
      <trkpt lat="43.5116" lon="6.31444">
        <ele>286</ele>
        <time>2019-06-04T07:32:28Z</time>
      </trkpt>
      <trkpt lat="43.51162" lon="6.31453">
        <ele>286</ele>
        <time>2019-06-04T07:32:32Z</time>
      </trkpt>
      <trkpt lat="43.51163" lon="6.31466">
        <ele>286</ele>
        <time>2019-06-04T07:32:42Z</time>
      </trkpt>
      <trkpt lat="43.51162" lon="6.31471">
        <ele>286</ele>
        <time>2019-06-04T07:32:46Z</time>
      </trkpt>
      <trkpt lat="43.51162" lon="6.31477">
        <ele>287</ele>
        <time>2019-06-04T07:32:50Z</time>
      </trkpt>
      <trkpt lat="43.51165" lon="6.31504">
        <ele>287</ele>
        <time>2019-06-04T07:33:11Z</time>
      </trkpt>
      <trkpt lat="43.51172" lon="6.31535">
        <ele>288</ele>
        <time>2019-06-04T07:33:39Z</time>
      </trkpt>
      <trkpt lat="43.51177" lon="6.31542">
        <ele>288</ele>
        <time>2019-06-04T07:33:47Z</time>
      </trkpt>
      <trkpt lat="43.51179" lon="6.31546">
        <ele>288</ele>
        <time>2019-06-04T07:33:50Z</time>
      </trkpt>
      <trkpt lat="43.5118" lon="6.31555">
        <ele>289</ele>
        <time>2019-06-04T07:33:56Z</time>
      </trkpt>
      <trkpt lat="43.51181" lon="6.3156">
        <ele>289</ele>
        <time>2019-06-04T07:34:00Z</time>
      </trkpt>
      <trkpt lat="43.51185" lon="6.31567">
        <ele>289</ele>
        <time>2019-06-04T07:34:10Z</time>
      </trkpt>
      <trkpt lat="43.51186" lon="6.31571">
        <ele>289</ele>
        <time>2019-06-04T07:34:14Z</time>
      </trkpt>
      <trkpt lat="43.5119" lon="6.31596">
        <ele>290</ele>
        <time>2019-06-04T07:34:30Z</time>
      </trkpt>
      <trkpt lat="43.5119" lon="6.31601">
        <ele>290</ele>
        <time>2019-06-04T07:34:33Z</time>
      </trkpt>
      <trkpt lat="43.51189" lon="6.31605">
        <ele>290</ele>
        <time>2019-06-04T07:34:36Z</time>
      </trkpt>
      <trkpt lat="43.5119" lon="6.31608">
        <ele>290</ele>
        <time>2019-06-04T07:34:38Z</time>
      </trkpt>
      <trkpt lat="43.5119" lon="6.31613">
        <ele>291</ele>
        <time>2019-06-04T07:34:42Z</time>
      </trkpt>
      <trkpt lat="43.51197" lon="6.31652">
        <ele>292</ele>
        <time>2019-06-04T07:35:13Z</time>
      </trkpt>
      <trkpt lat="43.51207" lon="6.31681">
        <ele>292</ele>
        <time>2019-06-04T07:35:36Z</time>
      </trkpt>
      <trkpt lat="43.51208" lon="6.31686">
        <ele>293</ele>
        <time>2019-06-04T07:35:39Z</time>
      </trkpt>
      <trkpt lat="43.51209" lon="6.31691">
        <ele>293</ele>
        <time>2019-06-04T07:35:43Z</time>
      </trkpt>
      <trkpt lat="43.51213" lon="6.31702">
        <ele>293</ele>
        <time>2019-06-04T07:35:53Z</time>
      </trkpt>
      <trkpt lat="43.51215" lon="6.31714">
        <ele>293</ele>
        <time>2019-06-04T07:36:02Z</time>
      </trkpt>
      <trkpt lat="43.51216" lon="6.31719">
        <ele>293</ele>
        <time>2019-06-04T07:36:09Z</time>
      </trkpt>
      <trkpt lat="43.51214" lon="6.31722">
        <ele>294</ele>
        <time>2019-06-04T07:36:29Z</time>
      </trkpt>
      <trkpt lat="43.51212" lon="6.31724">
        <ele>294</ele>
        <time>2019-06-04T07:37:50Z</time>
      </trkpt>
      <trkpt lat="43.51212" lon="6.31728">
        <ele>295</ele>
        <time>2019-06-04T07:38:10Z</time>
      </trkpt>
      <trkpt lat="43.51208" lon="6.31735">
        <ele>296</ele>
        <time>2019-06-04T07:38:15Z</time>
      </trkpt>
      <trkpt lat="43.51211" lon="6.3174">
        <ele>296</ele>
        <time>2019-06-04T07:38:19Z</time>
      </trkpt>
      <trkpt lat="43.51203" lon="6.3175">
        <ele>297</ele>
        <time>2019-06-04T07:38:43Z</time>
      </trkpt>
      <trkpt lat="43.51207" lon="6.31767">
        <ele>298</ele>
        <time>2019-06-04T07:38:52Z</time>
      </trkpt>
      <trkpt lat="43.51209" lon="6.31772">
        <ele>299</ele>
        <time>2019-06-04T07:38:56Z</time>
      </trkpt>
      <trkpt lat="43.51213" lon="6.31781">
        <ele>299</ele>
        <time>2019-06-04T07:39:06Z</time>
      </trkpt>
      <trkpt lat="43.51215" lon="6.31786">
        <ele>299</ele>
        <time>2019-06-04T07:39:11Z</time>
      </trkpt>
      <trkpt lat="43.51216" lon="6.31792">
        <ele>299</ele>
        <time>2019-06-04T07:39:18Z</time>
      </trkpt>
      <trkpt lat="43.5122" lon="6.31802">
        <ele>300</ele>
        <time>2019-06-04T07:39:26Z</time>
      </trkpt>
      <trkpt lat="43.51228" lon="6.31815">
        <ele>300</ele>
        <time>2019-06-04T07:39:38Z</time>
      </trkpt>
      <trkpt lat="43.51232" lon="6.31824">
        <ele>300</ele>
        <time>2019-06-04T07:39:47Z</time>
      </trkpt>
      <trkpt lat="43.51236" lon="6.31827">
        <ele>301</ele>
        <time>2019-06-04T07:39:50Z</time>
      </trkpt>
      <trkpt lat="43.51239" lon="6.3183">
        <ele>301</ele>
        <time>2019-06-04T07:39:55Z</time>
      </trkpt>
      <trkpt lat="43.51243" lon="6.31834">
        <ele>301</ele>
        <time>2019-06-04T07:40:02Z</time>
      </trkpt>
      <trkpt lat="43.51246" lon="6.31841">
        <ele>301</ele>
        <time>2019-06-04T07:40:05Z</time>
      </trkpt>
      <trkpt lat="43.51248" lon="6.31845">
        <ele>301</ele>
        <time>2019-06-04T07:40:07Z</time>
      </trkpt>
      <trkpt lat="43.51247" lon="6.31852">
        <ele>301</ele>
        <time>2019-06-04T07:40:11Z</time>
      </trkpt>
      <trkpt lat="43.5125" lon="6.31857">
        <ele>301</ele>
        <time>2019-06-04T07:40:15Z</time>
      </trkpt>
      <trkpt lat="43.51253" lon="6.31861">
        <ele>301</ele>
        <time>2019-06-04T07:40:18Z</time>
      </trkpt>
      <trkpt lat="43.51255" lon="6.31866">
        <ele>302</ele>
        <time>2019-06-04T07:40:25Z</time>
      </trkpt>
      <trkpt lat="43.51257" lon="6.31872">
        <ele>302</ele>
        <time>2019-06-04T07:40:30Z</time>
      </trkpt>
      <trkpt lat="43.51258" lon="6.31877">
        <ele>302</ele>
        <time>2019-06-04T07:40:35Z</time>
      </trkpt>
      <trkpt lat="43.51264" lon="6.31913">
        <ele>303</ele>
        <time>2019-06-04T07:41:01Z</time>
      </trkpt>
      <trkpt lat="43.51264" lon="6.31919">
        <ele>303</ele>
        <time>2019-06-04T07:41:09Z</time>
      </trkpt>
      <trkpt lat="43.51267" lon="6.31924">
        <ele>303</ele>
        <time>2019-06-04T07:41:12Z</time>
      </trkpt>
      <trkpt lat="43.51267" lon="6.3193">
        <ele>303</ele>
        <time>2019-06-04T07:41:16Z</time>
      </trkpt>
      <trkpt lat="43.51267" lon="6.31966">
        <ele>304</ele>
        <time>2019-06-04T07:41:40Z</time>
      </trkpt>
      <trkpt lat="43.51267" lon="6.31985">
        <ele>304</ele>
        <time>2019-06-04T07:41:53Z</time>
      </trkpt>
      <trkpt lat="43.51268" lon="6.31991">
        <ele>304</ele>
        <time>2019-06-04T07:41:58Z</time>
      </trkpt>
      <trkpt lat="43.51268" lon="6.31996">
        <ele>304</ele>
        <time>2019-06-04T07:42:01Z</time>
      </trkpt>
      <trkpt lat="43.51272" lon="6.3201">
        <ele>305</ele>
        <time>2019-06-04T07:42:15Z</time>
      </trkpt>
      <trkpt lat="43.51274" lon="6.32015">
        <ele>305</ele>
        <time>2019-06-04T07:42:21Z</time>
      </trkpt>
      <trkpt lat="43.51274" lon="6.32026">
        <ele>305</ele>
        <time>2019-06-04T07:42:30Z</time>
      </trkpt>
      <trkpt lat="43.51275" lon="6.32044">
        <ele>305</ele>
        <time>2019-06-04T07:42:39Z</time>
      </trkpt>
      <trkpt lat="43.51287" lon="6.32087">
        <ele>306</ele>
        <time>2019-06-04T07:43:09Z</time>
      </trkpt>
      <trkpt lat="43.51286" lon="6.32097">
        <ele>306</ele>
        <time>2019-06-04T07:43:19Z</time>
      </trkpt>
      <trkpt lat="43.51286" lon="6.32103">
        <ele>306</ele>
        <time>2019-06-04T07:43:22Z</time>
      </trkpt>
      <trkpt lat="43.51286" lon="6.32108">
        <ele>306</ele>
        <time>2019-06-04T07:43:25Z</time>
      </trkpt>
      <trkpt lat="43.51286" lon="6.3212">
        <ele>306</ele>
        <time>2019-06-04T07:43:36Z</time>
      </trkpt>
      <trkpt lat="43.51286" lon="6.32126">
        <ele>306</ele>
        <time>2019-06-04T07:43:41Z</time>
      </trkpt>
      <trkpt lat="43.51291" lon="6.32142">
        <ele>307</ele>
        <time>2019-06-04T07:43:54Z</time>
      </trkpt>
      <trkpt lat="43.51307" lon="6.32147">
        <ele>307</ele>
        <time>2019-06-04T07:44:18Z</time>
      </trkpt>
      <trkpt lat="43.51324" lon="6.32144">
        <ele>308</ele>
        <time>2019-06-04T07:44:35Z</time>
      </trkpt>
      <trkpt lat="43.51328" lon="6.32147">
        <ele>308</ele>
        <time>2019-06-04T07:44:39Z</time>
      </trkpt>
      <trkpt lat="43.51331" lon="6.32151">
        <ele>308</ele>
        <time>2019-06-04T07:44:44Z</time>
      </trkpt>
      <trkpt lat="43.51333" lon="6.32153">
        <ele>308</ele>
        <time>2019-06-04T07:44:56Z</time>
      </trkpt>
      <trkpt lat="43.51336" lon="6.3215">
        <ele>308</ele>
        <time>2019-06-04T07:45:00Z</time>
      </trkpt>
      <trkpt lat="43.51338" lon="6.32147">
        <ele>309</ele>
        <time>2019-06-04T07:45:03Z</time>
      </trkpt>
      <trkpt lat="43.51342" lon="6.32146">
        <ele>309</ele>
        <time>2019-06-04T07:45:09Z</time>
      </trkpt>
      <trkpt lat="43.51358" lon="6.32146">
        <ele>309</ele>
        <time>2019-06-04T07:45:23Z</time>
      </trkpt>
      <trkpt lat="43.51362" lon="6.32146">
        <ele>309</ele>
        <time>2019-06-04T07:45:27Z</time>
      </trkpt>
      <trkpt lat="43.51367" lon="6.32145">
        <ele>309</ele>
        <time>2019-06-04T07:45:32Z</time>
      </trkpt>
      <trkpt lat="43.51377" lon="6.32145">
        <ele>310</ele>
        <time>2019-06-04T07:45:42Z</time>
      </trkpt>
      <trkpt lat="43.5138" lon="6.32147">
        <ele>310</ele>
        <time>2019-06-04T07:45:53Z</time>
      </trkpt>
      <trkpt lat="43.51378" lon="6.32148">
        <ele>311</ele>
        <time>2019-06-04T07:48:08Z</time>
      </trkpt>
      <trkpt lat="43.51376" lon="6.3215">
        <ele>311</ele>
        <time>2019-06-04T07:48:42Z</time>
      </trkpt>
      <trkpt lat="43.51377" lon="6.32154">
        <ele>311</ele>
        <time>2019-06-04T07:48:55Z</time>
      </trkpt>
      <trkpt lat="43.51381" lon="6.32156">
        <ele>311</ele>
        <time>2019-06-04T07:48:58Z</time>
      </trkpt>
      <trkpt lat="43.51407" lon="6.32188">
        <ele>314</ele>
        <time>2019-06-04T07:49:30Z</time>
      </trkpt>
      <trkpt lat="43.51415" lon="6.32196">
        <ele>315</ele>
        <time>2019-06-04T07:49:41Z</time>
      </trkpt>
      <trkpt lat="43.51418" lon="6.32199">
        <ele>315</ele>
        <time>2019-06-04T07:49:46Z</time>
      </trkpt>
      <trkpt lat="43.51428" lon="6.32216">
        <ele>316</ele>
        <time>2019-06-04T07:50:00Z</time>
      </trkpt>
      <trkpt lat="43.51432" lon="6.32229">
        <ele>316</ele>
        <time>2019-06-04T07:50:11Z</time>
      </trkpt>
      <trkpt lat="43.51435" lon="6.32238">
        <ele>316</ele>
        <time>2019-06-04T07:50:22Z</time>
      </trkpt>
      <trkpt lat="43.51439" lon="6.32241">
        <ele>317</ele>
        <time>2019-06-04T07:50:28Z</time>
      </trkpt>
      <trkpt lat="43.51454" lon="6.32267">
        <ele>317</ele>
        <time>2019-06-04T07:50:51Z</time>
      </trkpt>
      <trkpt lat="43.51457" lon="6.32271">
        <ele>317</ele>
        <time>2019-06-04T07:50:55Z</time>
      </trkpt>
      <trkpt lat="43.51465" lon="6.32286">
        <ele>318</ele>
        <time>2019-06-04T07:51:05Z</time>
      </trkpt>
      <trkpt lat="43.51465" lon="6.32291">
        <ele>318</ele>
        <time>2019-06-04T07:51:08Z</time>
      </trkpt>
      <trkpt lat="43.51469" lon="6.32299">
        <ele>318</ele>
        <time>2019-06-04T07:51:14Z</time>
      </trkpt>
      <trkpt lat="43.5147" lon="6.32302">
        <ele>318</ele>
        <time>2019-06-04T07:51:18Z</time>
      </trkpt>
      <trkpt lat="43.5147" lon="6.32308">
        <ele>318</ele>
        <time>2019-06-04T07:51:30Z</time>
      </trkpt>
      <trkpt lat="43.51469" lon="6.32312">
        <ele>318</ele>
        <time>2019-06-04T07:51:38Z</time>
      </trkpt>
      <trkpt lat="43.5147" lon="6.32318">
        <ele>318</ele>
        <time>2019-06-04T07:51:41Z</time>
      </trkpt>
      <trkpt lat="43.51476" lon="6.32335">
        <ele>318</ele>
        <time>2019-06-04T07:51:52Z</time>
      </trkpt>
      <trkpt lat="43.51478" lon="6.32339">
        <ele>318</ele>
        <time>2019-06-04T07:51:54Z</time>
      </trkpt>
      <trkpt lat="43.51491" lon="6.32364">
        <ele>319</ele>
        <time>2019-06-04T07:52:20Z</time>
      </trkpt>
      <trkpt lat="43.51488" lon="6.32361">
        <ele>319</ele>
        <time>2019-06-04T07:52:29Z</time>
      </trkpt>
      <trkpt lat="43.51487" lon="6.32367">
        <ele>319</ele>
        <time>2019-06-04T07:52:35Z</time>
      </trkpt>
      <trkpt lat="43.51488" lon="6.32377">
        <ele>319</ele>
        <time>2019-06-04T07:52:40Z</time>
      </trkpt>
      <trkpt lat="43.51487" lon="6.32383">
        <ele>319</ele>
        <time>2019-06-04T07:52:48Z</time>
      </trkpt>
      <trkpt lat="43.51486" lon="6.32388">
        <ele>319</ele>
        <time>2019-06-04T07:52:52Z</time>
      </trkpt>
      <trkpt lat="43.51487" lon="6.32392">
        <ele>319</ele>
        <time>2019-06-04T07:52:55Z</time>
      </trkpt>
      <trkpt lat="43.51488" lon="6.32396">
        <ele>319</ele>
        <time>2019-06-04T07:52:58Z</time>
      </trkpt>
      <trkpt lat="43.51494" lon="6.32404">
        <ele>319</ele>
        <time>2019-06-04T07:53:03Z</time>
      </trkpt>
      <trkpt lat="43.51498" lon="6.32415">
        <ele>319</ele>
        <time>2019-06-04T07:53:09Z</time>
      </trkpt>
      <trkpt lat="43.51501" lon="6.32422">
        <ele>319</ele>
        <time>2019-06-04T07:53:14Z</time>
      </trkpt>
      <trkpt lat="43.51515" lon="6.3243">
        <ele>320</ele>
        <time>2019-06-04T07:53:23Z</time>
      </trkpt>
      <trkpt lat="43.51518" lon="6.32432">
        <ele>320</ele>
        <time>2019-06-04T07:53:28Z</time>
      </trkpt>
      <trkpt lat="43.51521" lon="6.32434">
        <ele>320</ele>
        <time>2019-06-04T07:53:31Z</time>
      </trkpt>
      <trkpt lat="43.51524" lon="6.32436">
        <ele>320</ele>
        <time>2019-06-04T07:53:36Z</time>
      </trkpt>
      <trkpt lat="43.51539" lon="6.32459">
        <ele>320</ele>
        <time>2019-06-04T07:53:55Z</time>
      </trkpt>
      <trkpt lat="43.51541" lon="6.32463">
        <ele>320</ele>
        <time>2019-06-04T07:53:58Z</time>
      </trkpt>
      <trkpt lat="43.51546" lon="6.32473">
        <ele>320</ele>
        <time>2019-06-04T07:54:03Z</time>
      </trkpt>
      <trkpt lat="43.51548" lon="6.32481">
        <ele>320</ele>
        <time>2019-06-04T07:54:10Z</time>
      </trkpt>
      <trkpt lat="43.51562" lon="6.32498">
        <ele>321</ele>
        <time>2019-06-04T07:54:29Z</time>
      </trkpt>
      <trkpt lat="43.51566" lon="6.32505">
        <ele>321</ele>
        <time>2019-06-04T07:54:38Z</time>
      </trkpt>
      <trkpt lat="43.5157" lon="6.32508">
        <ele>321</ele>
        <time>2019-06-04T07:54:42Z</time>
      </trkpt>
      <trkpt lat="43.51574" lon="6.32509">
        <ele>321</ele>
        <time>2019-06-04T07:54:45Z</time>
      </trkpt>
      <trkpt lat="43.51585" lon="6.32513">
        <ele>321</ele>
        <time>2019-06-04T07:54:57Z</time>
      </trkpt>
      <trkpt lat="43.51592" lon="6.32517">
        <ele>322</ele>
        <time>2019-06-04T07:55:08Z</time>
      </trkpt>
      <trkpt lat="43.51603" lon="6.32523">
        <ele>322</ele>
        <time>2019-06-04T07:55:19Z</time>
      </trkpt>
      <trkpt lat="43.51608" lon="6.32525">
        <ele>322</ele>
        <time>2019-06-04T07:55:26Z</time>
      </trkpt>
      <trkpt lat="43.51619" lon="6.32531">
        <ele>323</ele>
        <time>2019-06-04T07:55:38Z</time>
      </trkpt>
      <trkpt lat="43.51626" lon="6.32538">
        <ele>323</ele>
        <time>2019-06-04T07:55:46Z</time>
      </trkpt>
      <trkpt lat="43.51629" lon="6.3254">
        <ele>323</ele>
        <time>2019-06-04T07:55:50Z</time>
      </trkpt>
      <trkpt lat="43.51636" lon="6.32547">
        <ele>323</ele>
        <time>2019-06-04T07:55:59Z</time>
      </trkpt>
      <trkpt lat="43.5164" lon="6.32548">
        <ele>323</ele>
        <time>2019-06-04T07:56:05Z</time>
      </trkpt>
      <trkpt lat="43.51662" lon="6.32559">
        <ele>324</ele>
        <time>2019-06-04T07:56:27Z</time>
      </trkpt>
      <trkpt lat="43.5167" lon="6.32563">
        <ele>324</ele>
        <time>2019-06-04T07:56:38Z</time>
      </trkpt>
      <trkpt lat="43.51693" lon="6.3259">
        <ele>325</ele>
        <time>2019-06-04T07:57:00Z</time>
      </trkpt>
      <trkpt lat="43.51695" lon="6.32594">
        <ele>325</ele>
        <time>2019-06-04T07:57:03Z</time>
      </trkpt>
      <trkpt lat="43.51699" lon="6.32602">
        <ele>325</ele>
        <time>2019-06-04T07:57:11Z</time>
      </trkpt>
      <trkpt lat="43.51701" lon="6.32605">
        <ele>325</ele>
        <time>2019-06-04T07:57:13Z</time>
      </trkpt>
      <trkpt lat="43.51704" lon="6.32612">
        <ele>325</ele>
        <time>2019-06-04T07:57:19Z</time>
      </trkpt>
      <trkpt lat="43.51706" lon="6.32621">
        <ele>326</ele>
        <time>2019-06-04T07:57:25Z</time>
      </trkpt>
      <trkpt lat="43.51712" lon="6.32632">
        <ele>326</ele>
        <time>2019-06-04T07:57:36Z</time>
      </trkpt>
      <trkpt lat="43.51715" lon="6.32641">
        <ele>326</ele>
        <time>2019-06-04T07:57:44Z</time>
      </trkpt>
      <trkpt lat="43.51719" lon="6.32648">
        <ele>326</ele>
        <time>2019-06-04T07:57:51Z</time>
      </trkpt>
      <trkpt lat="43.51722" lon="6.32649">
        <ele>326</ele>
        <time>2019-06-04T07:58:14Z</time>
      </trkpt>
      <trkpt lat="43.51723" lon="6.32651">
        <ele>327</ele>
        <time>2019-06-04T07:58:23Z</time>
      </trkpt>
      <trkpt lat="43.51723" lon="6.32646">
        <ele>327</ele>
        <time>2019-06-04T07:58:35Z</time>
      </trkpt>
      <trkpt lat="43.5172" lon="6.32647">
        <ele>327</ele>
        <time>2019-06-04T07:58:47Z</time>
      </trkpt>
      <trkpt lat="43.51722" lon="6.3265">
        <ele>327</ele>
        <time>2019-06-04T08:00:17Z</time>
      </trkpt>
      <trkpt lat="43.51724" lon="6.32648">
        <ele>327</ele>
        <time>2019-06-04T08:02:00Z</time>
      </trkpt>
      <trkpt lat="43.51725" lon="6.32643">
        <ele>327</ele>
        <time>2019-06-04T08:02:02Z</time>
      </trkpt>
      <trkpt lat="43.51733" lon="6.32636">
        <ele>328</ele>
        <time>2019-06-04T08:02:09Z</time>
      </trkpt>
      <trkpt lat="43.51757" lon="6.3261">
        <ele>328</ele>
        <time>2019-06-04T08:02:41Z</time>
      </trkpt>
      <trkpt lat="43.51784" lon="6.32589">
        <ele>329</ele>
        <time>2019-06-04T08:03:13Z</time>
      </trkpt>
      <trkpt lat="43.51792" lon="6.32575">
        <ele>329</ele>
        <time>2019-06-04T08:03:32Z</time>
      </trkpt>
      <trkpt lat="43.51792" lon="6.32571">
        <ele>329</ele>
        <time>2019-06-04T08:03:35Z</time>
      </trkpt>
      <trkpt lat="43.51795" lon="6.32563">
        <ele>329</ele>
        <time>2019-06-04T08:03:49Z</time>
      </trkpt>
      <trkpt lat="43.51795" lon="6.32559">
        <ele>329</ele>
        <time>2019-06-04T08:03:52Z</time>
      </trkpt>
      <trkpt lat="43.51796" lon="6.32555">
        <ele>329</ele>
        <time>2019-06-04T08:03:56Z</time>
      </trkpt>
      <trkpt lat="43.51795" lon="6.32543">
        <ele>329</ele>
        <time>2019-06-04T08:04:04Z</time>
      </trkpt>
      <trkpt lat="43.51794" lon="6.32535">
        <ele>329</ele>
        <time>2019-06-04T08:04:11Z</time>
      </trkpt>
      <trkpt lat="43.51795" lon="6.3253">
        <ele>329</ele>
        <time>2019-06-04T08:04:14Z</time>
      </trkpt>
      <trkpt lat="43.51797" lon="6.32512">
        <ele>329</ele>
        <time>2019-06-04T08:04:29Z</time>
      </trkpt>
      <trkpt lat="43.51797" lon="6.32506">
        <ele>329</ele>
        <time>2019-06-04T08:04:34Z</time>
      </trkpt>
      <trkpt lat="43.51802" lon="6.32491">
        <ele>330</ele>
        <time>2019-06-04T08:04:47Z</time>
      </trkpt>
      <trkpt lat="43.5181" lon="6.32474">
        <ele>330</ele>
        <time>2019-06-04T08:05:05Z</time>
      </trkpt>
      <trkpt lat="43.51817" lon="6.32468">
        <ele>330</ele>
        <time>2019-06-04T08:05:12Z</time>
      </trkpt>
      <trkpt lat="43.5182" lon="6.32465">
        <ele>330</ele>
        <time>2019-06-04T08:05:16Z</time>
      </trkpt>
      <trkpt lat="43.51824" lon="6.32464">
        <ele>330</ele>
        <time>2019-06-04T08:05:20Z</time>
      </trkpt>
      <trkpt lat="43.51851" lon="6.32463">
        <ele>330</ele>
        <time>2019-06-04T08:05:52Z</time>
      </trkpt>
      <trkpt lat="43.51857" lon="6.32463">
        <ele>331</ele>
        <time>2019-06-04T08:05:56Z</time>
      </trkpt>
      <trkpt lat="43.51861" lon="6.32465">
        <ele>331</ele>
        <time>2019-06-04T08:06:02Z</time>
      </trkpt>
      <trkpt lat="43.51865" lon="6.32465">
        <ele>331</ele>
        <time>2019-06-04T08:06:06Z</time>
      </trkpt>
      <trkpt lat="43.51869" lon="6.32465">
        <ele>331</ele>
        <time>2019-06-04T08:06:13Z</time>
      </trkpt>
      <trkpt lat="43.51872" lon="6.32468">
        <ele>331</ele>
        <time>2019-06-04T08:07:18Z</time>
      </trkpt>
      <trkpt lat="43.5188" lon="6.3247">
        <ele>331</ele>
        <time>2019-06-04T08:07:31Z</time>
      </trkpt>
      <trkpt lat="43.51888" lon="6.32466">
        <ele>332</ele>
        <time>2019-06-04T08:07:40Z</time>
      </trkpt>
      <trkpt lat="43.51893" lon="6.32466">
        <ele>332</ele>
        <time>2019-06-04T08:07:45Z</time>
      </trkpt>
      <trkpt lat="43.51923" lon="6.32473">
        <ele>332</ele>
        <time>2019-06-04T08:08:15Z</time>
      </trkpt>
      <trkpt lat="43.51927" lon="6.32473">
        <ele>332</ele>
        <time>2019-06-04T08:08:19Z</time>
      </trkpt>
      <trkpt lat="43.5193" lon="6.32471">
        <ele>333</ele>
        <time>2019-06-04T08:08:23Z</time>
      </trkpt>
      <trkpt lat="43.51963" lon="6.3248">
        <ele>333</ele>
        <time>2019-06-04T08:08:54Z</time>
      </trkpt>
      <trkpt lat="43.51973" lon="6.32481">
        <ele>333</ele>
        <time>2019-06-04T08:09:02Z</time>
      </trkpt>
      <trkpt lat="43.51977" lon="6.32483">
        <ele>333</ele>
        <time>2019-06-04T08:09:05Z</time>
      </trkpt>
      <trkpt lat="43.51981" lon="6.32485">
        <ele>334</ele>
        <time>2019-06-04T08:09:09Z</time>
      </trkpt>
      <trkpt lat="43.51985" lon="6.32485">
        <ele>334</ele>
        <time>2019-06-04T08:09:15Z</time>
      </trkpt>
      <trkpt lat="43.51991" lon="6.32487">
        <ele>334</ele>
        <time>2019-06-04T08:09:21Z</time>
      </trkpt>
      <trkpt lat="43.51999" lon="6.32488">
        <ele>334</ele>
        <time>2019-06-04T08:09:33Z</time>
      </trkpt>
      <trkpt lat="43.52003" lon="6.32495">
        <ele>334</ele>
        <time>2019-06-04T08:09:46Z</time>
      </trkpt>
      <trkpt lat="43.52014" lon="6.32493">
        <ele>335</ele>
        <time>2019-06-04T08:09:54Z</time>
      </trkpt>
      <trkpt lat="43.52027" lon="6.32491">
        <ele>335</ele>
        <time>2019-06-04T08:10:03Z</time>
      </trkpt>
      <trkpt lat="43.52031" lon="6.32488">
        <ele>335</ele>
        <time>2019-06-04T08:10:07Z</time>
      </trkpt>
      <trkpt lat="43.52039" lon="6.32482">
        <ele>335</ele>
        <time>2019-06-04T08:10:17Z</time>
      </trkpt>
      <trkpt lat="43.52038" lon="6.32478">
        <ele>335</ele>
        <time>2019-06-04T08:10:44Z</time>
      </trkpt>
      <trkpt lat="43.52048" lon="6.32467">
        <ele>336</ele>
        <time>2019-06-04T08:11:25Z</time>
      </trkpt>
      <trkpt lat="43.52053" lon="6.32462">
        <ele>336</ele>
        <time>2019-06-04T08:11:32Z</time>
      </trkpt>
      <trkpt lat="43.52072" lon="6.32449">
        <ele>337</ele>
        <time>2019-06-04T08:11:47Z</time>
      </trkpt>
      <trkpt lat="43.52077" lon="6.32447">
        <ele>337</ele>
        <time>2019-06-04T08:11:54Z</time>
      </trkpt>
      <trkpt lat="43.52083" lon="6.3244">
        <ele>337</ele>
        <time>2019-06-04T08:12:06Z</time>
      </trkpt>
      <trkpt lat="43.52095" lon="6.32436">
        <ele>338</ele>
        <time>2019-06-04T08:12:21Z</time>
      </trkpt>
      <trkpt lat="43.52101" lon="6.32435">
        <ele>338</ele>
        <time>2019-06-04T08:12:24Z</time>
      </trkpt>
      <trkpt lat="43.52104" lon="6.32433">
        <ele>338</ele>
        <time>2019-06-04T08:12:27Z</time>
      </trkpt>
      <trkpt lat="43.52108" lon="6.32431">
        <ele>338</ele>
        <time>2019-06-04T08:12:31Z</time>
      </trkpt>
      <trkpt lat="43.52112" lon="6.32431">
        <ele>338</ele>
        <time>2019-06-04T08:12:35Z</time>
      </trkpt>
      <trkpt lat="43.52115" lon="6.32428">
        <ele>339</ele>
        <time>2019-06-04T08:12:41Z</time>
      </trkpt>
      <trkpt lat="43.52118" lon="6.32424">
        <ele>339</ele>
        <time>2019-06-04T08:12:46Z</time>
      </trkpt>
      <trkpt lat="43.52123" lon="6.32414">
        <ele>339</ele>
        <time>2019-06-04T08:12:54Z</time>
      </trkpt>
      <trkpt lat="43.52125" lon="6.3241">
        <ele>339</ele>
        <time>2019-06-04T08:12:59Z</time>
      </trkpt>
      <trkpt lat="43.52127" lon="6.32405">
        <ele>339</ele>
        <time>2019-06-04T08:13:03Z</time>
      </trkpt>
      <trkpt lat="43.5213" lon="6.32401">
        <ele>339</ele>
        <time>2019-06-04T08:13:06Z</time>
      </trkpt>
      <trkpt lat="43.52133" lon="6.32398">
        <ele>340</ele>
        <time>2019-06-04T08:13:11Z</time>
      </trkpt>
      <trkpt lat="43.52135" lon="6.32393">
        <ele>340</ele>
        <time>2019-06-04T08:13:15Z</time>
      </trkpt>
      <trkpt lat="43.5215" lon="6.32387">
        <ele>340</ele>
        <time>2019-06-04T08:13:29Z</time>
      </trkpt>
      <trkpt lat="43.52154" lon="6.32385">
        <ele>340</ele>
        <time>2019-06-04T08:13:34Z</time>
      </trkpt>
      <trkpt lat="43.52161" lon="6.3237">
        <ele>341</ele>
        <time>2019-06-04T08:13:46Z</time>
      </trkpt>
      <trkpt lat="43.52165" lon="6.32364">
        <ele>341</ele>
        <time>2019-06-04T08:13:50Z</time>
      </trkpt>
      <trkpt lat="43.52172" lon="6.32357">
        <ele>341</ele>
        <time>2019-06-04T08:14:00Z</time>
      </trkpt>
      <trkpt lat="43.52174" lon="6.32352">
        <ele>342</ele>
        <time>2019-06-04T08:14:03Z</time>
      </trkpt>
      <trkpt lat="43.52178" lon="6.3235">
        <ele>342</ele>
        <time>2019-06-04T08:14:08Z</time>
      </trkpt>
      <trkpt lat="43.52181" lon="6.32348">
        <ele>342</ele>
        <time>2019-06-04T08:14:13Z</time>
      </trkpt>
      <trkpt lat="43.52188" lon="6.32342">
        <ele>342</ele>
        <time>2019-06-04T08:14:22Z</time>
      </trkpt>
      <trkpt lat="43.52191" lon="6.32338">
        <ele>342</ele>
        <time>2019-06-04T08:14:27Z</time>
      </trkpt>
      <trkpt lat="43.52199" lon="6.32333">
        <ele>343</ele>
        <time>2019-06-04T08:14:36Z</time>
      </trkpt>
      <trkpt lat="43.52207" lon="6.32329">
        <ele>343</ele>
        <time>2019-06-04T08:14:43Z</time>
      </trkpt>
      <trkpt lat="43.5221" lon="6.32326">
        <ele>343</ele>
        <time>2019-06-04T08:14:48Z</time>
      </trkpt>
      <trkpt lat="43.52214" lon="6.32324">
        <ele>343</ele>
        <time>2019-06-04T08:14:52Z</time>
      </trkpt>
      <trkpt lat="43.52217" lon="6.32321">
        <ele>343</ele>
        <time>2019-06-04T08:14:55Z</time>
      </trkpt>
      <trkpt lat="43.5222" lon="6.32317">
        <ele>343</ele>
        <time>2019-06-04T08:14:57Z</time>
      </trkpt>
      <trkpt lat="43.52221" lon="6.32313">
        <ele>344</ele>
        <time>2019-06-04T08:15:01Z</time>
      </trkpt>
      <trkpt lat="43.52221" lon="6.32309">
        <ele>344</ele>
        <time>2019-06-04T08:15:06Z</time>
      </trkpt>
      <trkpt lat="43.52222" lon="6.32305">
        <ele>344</ele>
        <time>2019-06-04T08:15:09Z</time>
      </trkpt>
      <trkpt lat="43.52228" lon="6.32302">
        <ele>344</ele>
        <time>2019-06-04T08:15:13Z</time>
      </trkpt>
      <trkpt lat="43.52233" lon="6.32307">
        <ele>345</ele>
        <time>2019-06-04T08:15:31Z</time>
      </trkpt>
      <trkpt lat="43.52237" lon="6.32308">
        <ele>345</ele>
        <time>2019-06-04T08:15:37Z</time>
      </trkpt>
      <trkpt lat="43.52252" lon="6.32299">
        <ele>346</ele>
        <time>2019-06-04T08:15:54Z</time>
      </trkpt>
      <trkpt lat="43.52269" lon="6.3229">
        <ele>348</ele>
        <time>2019-06-04T08:16:11Z</time>
      </trkpt>
      <trkpt lat="43.52272" lon="6.32288">
        <ele>348</ele>
        <time>2019-06-04T08:16:15Z</time>
      </trkpt>
      <trkpt lat="43.52279" lon="6.32282">
        <ele>348</ele>
        <time>2019-06-04T08:16:24Z</time>
      </trkpt>
      <trkpt lat="43.52283" lon="6.32283">
        <ele>349</ele>
        <time>2019-06-04T08:16:29Z</time>
      </trkpt>
      <trkpt lat="43.52295" lon="6.32277">
        <ele>349</ele>
        <time>2019-06-04T08:16:43Z</time>
      </trkpt>
      <trkpt lat="43.52305" lon="6.3226">
        <ele>350</ele>
        <time>2019-06-04T08:17:00Z</time>
      </trkpt>
      <trkpt lat="43.52314" lon="6.32253">
        <ele>350</ele>
        <time>2019-06-04T08:17:10Z</time>
      </trkpt>
      <trkpt lat="43.52321" lon="6.32249">
        <ele>350</ele>
        <time>2019-06-04T08:17:18Z</time>
      </trkpt>
      <trkpt lat="43.52326" lon="6.32241">
        <ele>351</ele>
        <time>2019-06-04T08:17:30Z</time>
      </trkpt>
      <trkpt lat="43.52334" lon="6.3223">
        <ele>351</ele>
        <time>2019-06-04T08:17:39Z</time>
      </trkpt>
      <trkpt lat="43.5234" lon="6.32223">
        <ele>351</ele>
        <time>2019-06-04T08:17:44Z</time>
      </trkpt>
      <trkpt lat="43.52344" lon="6.32215">
        <ele>351</ele>
        <time>2019-06-04T08:17:51Z</time>
      </trkpt>
      <trkpt lat="43.52345" lon="6.32208">
        <ele>351</ele>
        <time>2019-06-04T08:17:58Z</time>
      </trkpt>
      <trkpt lat="43.52347" lon="6.32198">
        <ele>351</ele>
        <time>2019-06-04T08:18:04Z</time>
      </trkpt>
      <trkpt lat="43.52352" lon="6.32181">
        <ele>351</ele>
        <time>2019-06-04T08:18:16Z</time>
      </trkpt>
      <trkpt lat="43.52353" lon="6.32176">
        <ele>351</ele>
        <time>2019-06-04T08:18:19Z</time>
      </trkpt>
      <trkpt lat="43.52356" lon="6.32166">
        <ele>351</ele>
        <time>2019-06-04T08:18:24Z</time>
      </trkpt>
      <trkpt lat="43.52362" lon="6.32159">
        <ele>351</ele>
        <time>2019-06-04T08:18:31Z</time>
      </trkpt>
      <trkpt lat="43.52365" lon="6.32152">
        <ele>352</ele>
        <time>2019-06-04T08:18:38Z</time>
      </trkpt>
      <trkpt lat="43.52366" lon="6.32145">
        <ele>352</ele>
        <time>2019-06-04T08:18:45Z</time>
      </trkpt>
      <trkpt lat="43.5237" lon="6.32137">
        <ele>352</ele>
        <time>2019-06-04T08:18:49Z</time>
      </trkpt>
      <trkpt lat="43.52373" lon="6.32127">
        <ele>352</ele>
        <time>2019-06-04T08:19:01Z</time>
      </trkpt>
      <trkpt lat="43.5238" lon="6.32112">
        <ele>352</ele>
        <time>2019-06-04T08:19:11Z</time>
      </trkpt>
      <trkpt lat="43.52385" lon="6.32104">
        <ele>352</ele>
        <time>2019-06-04T08:19:19Z</time>
      </trkpt>
      <trkpt lat="43.52392" lon="6.32092">
        <ele>353</ele>
        <time>2019-06-04T08:19:35Z</time>
      </trkpt>
      <trkpt lat="43.52397" lon="6.32082">
        <ele>353</ele>
        <time>2019-06-04T08:19:41Z</time>
      </trkpt>
      <trkpt lat="43.52404" lon="6.32075">
        <ele>353</ele>
        <time>2019-06-04T08:19:51Z</time>
      </trkpt>
      <trkpt lat="43.52418" lon="6.32053">
        <ele>354</ele>
        <time>2019-06-04T08:20:11Z</time>
      </trkpt>
      <trkpt lat="43.52421" lon="6.32048">
        <ele>354</ele>
        <time>2019-06-04T08:20:15Z</time>
      </trkpt>
      <trkpt lat="43.52423" lon="6.32043">
        <ele>354</ele>
        <time>2019-06-04T08:20:18Z</time>
      </trkpt>
      <trkpt lat="43.52425" lon="6.32039">
        <ele>354</ele>
        <time>2019-06-04T08:20:21Z</time>
      </trkpt>
      <trkpt lat="43.52439" lon="6.32013">
        <ele>354</ele>
        <time>2019-06-04T08:20:43Z</time>
      </trkpt>
      <trkpt lat="43.52442" lon="6.32009">
        <ele>354</ele>
        <time>2019-06-04T08:20:46Z</time>
      </trkpt>
      <trkpt lat="43.52444" lon="6.32007">
        <ele>354</ele>
        <time>2019-06-04T08:20:49Z</time>
      </trkpt>
      <trkpt lat="43.52455" lon="6.31988">
        <ele>355</ele>
        <time>2019-06-04T08:21:06Z</time>
      </trkpt>
      <trkpt lat="43.52463" lon="6.31975">
        <ele>355</ele>
        <time>2019-06-04T08:21:20Z</time>
      </trkpt>
      <trkpt lat="43.52473" lon="6.3195">
        <ele>356</ele>
        <time>2019-06-04T08:21:41Z</time>
      </trkpt>
      <trkpt lat="43.52478" lon="6.3194">
        <ele>356</ele>
        <time>2019-06-04T08:21:46Z</time>
      </trkpt>
      <trkpt lat="43.52488" lon="6.31928">
        <ele>356</ele>
        <time>2019-06-04T08:21:58Z</time>
      </trkpt>
      <trkpt lat="43.52489" lon="6.31925">
        <ele>356</ele>
        <time>2019-06-04T08:22:00Z</time>
      </trkpt>
      <trkpt lat="43.5249" lon="6.31921">
        <ele>356</ele>
        <time>2019-06-04T08:22:04Z</time>
      </trkpt>
      <trkpt lat="43.52492" lon="6.31916">
        <ele>356</ele>
        <time>2019-06-04T08:22:08Z</time>
      </trkpt>
      <trkpt lat="43.52492" lon="6.31912">
        <ele>356</ele>
        <time>2019-06-04T08:22:10Z</time>
      </trkpt>
      <trkpt lat="43.52502" lon="6.31886">
        <ele>357</ele>
        <time>2019-06-04T08:22:31Z</time>
      </trkpt>
      <trkpt lat="43.52504" lon="6.31882">
        <ele>357</ele>
        <time>2019-06-04T08:22:35Z</time>
      </trkpt>
      <trkpt lat="43.52506" lon="6.31879">
        <ele>357</ele>
        <time>2019-06-04T08:22:38Z</time>
      </trkpt>
      <trkpt lat="43.52517" lon="6.3187">
        <ele>357</ele>
        <time>2019-06-04T08:23:01Z</time>
      </trkpt>
      <trkpt lat="43.52519" lon="6.31868">
        <ele>357</ele>
        <time>2019-06-04T08:23:03Z</time>
      </trkpt>
      <trkpt lat="43.52522" lon="6.3186">
        <ele>357</ele>
        <time>2019-06-04T08:23:07Z</time>
      </trkpt>
      <trkpt lat="43.52528" lon="6.31844">
        <ele>358</ele>
        <time>2019-06-04T08:23:20Z</time>
      </trkpt>
      <trkpt lat="43.52532" lon="6.31833">
        <ele>358</ele>
        <time>2019-06-04T08:23:30Z</time>
      </trkpt>
      <trkpt lat="43.52534" lon="6.31829">
        <ele>358</ele>
        <time>2019-06-04T08:23:33Z</time>
      </trkpt>
      <trkpt lat="43.52535" lon="6.31824">
        <ele>358</ele>
        <time>2019-06-04T08:23:36Z</time>
      </trkpt>
      <trkpt lat="43.52538" lon="6.31812">
        <ele>358</ele>
        <time>2019-06-04T08:23:43Z</time>
      </trkpt>
      <trkpt lat="43.52541" lon="6.31805">
        <ele>358</ele>
        <time>2019-06-04T08:23:49Z</time>
      </trkpt>
      <trkpt lat="43.52545" lon="6.31798">
        <ele>358</ele>
        <time>2019-06-04T08:23:56Z</time>
      </trkpt>
      <trkpt lat="43.52548" lon="6.31794">
        <ele>359</ele>
        <time>2019-06-04T08:23:59Z</time>
      </trkpt>
      <trkpt lat="43.5255" lon="6.31788">
        <ele>359</ele>
        <time>2019-06-04T08:24:04Z</time>
      </trkpt>
      <trkpt lat="43.52551" lon="6.31784">
        <ele>359</ele>
        <time>2019-06-04T08:24:07Z</time>
      </trkpt>
      <trkpt lat="43.52555" lon="6.31768">
        <ele>359</ele>
        <time>2019-06-04T08:24:19Z</time>
      </trkpt>
      <trkpt lat="43.52557" lon="6.31764">
        <ele>359</ele>
        <time>2019-06-04T08:24:22Z</time>
      </trkpt>
      <trkpt lat="43.5256" lon="6.31758">
        <ele>359</ele>
        <time>2019-06-04T08:24:28Z</time>
      </trkpt>
      <trkpt lat="43.52562" lon="6.31754">
        <ele>359</ele>
        <time>2019-06-04T08:24:31Z</time>
      </trkpt>
      <trkpt lat="43.52566" lon="6.31748">
        <ele>359</ele>
        <time>2019-06-04T08:24:37Z</time>
      </trkpt>
      <trkpt lat="43.52572" lon="6.31736">
        <ele>359</ele>
        <time>2019-06-04T08:24:45Z</time>
      </trkpt>
      <trkpt lat="43.52578" lon="6.31726">
        <ele>359</ele>
        <time>2019-06-04T08:24:58Z</time>
      </trkpt>
      <trkpt lat="43.52579" lon="6.31723">
        <ele>359</ele>
        <time>2019-06-04T08:25:02Z</time>
      </trkpt>
      <trkpt lat="43.52587" lon="6.31707">
        <ele>359</ele>
        <time>2019-06-04T08:25:16Z</time>
      </trkpt>
      <trkpt lat="43.52588" lon="6.31699">
        <ele>359</ele>
        <time>2019-06-04T08:25:20Z</time>
      </trkpt>
      <trkpt lat="43.52592" lon="6.31691">
        <ele>359</ele>
        <time>2019-06-04T08:25:27Z</time>
      </trkpt>
      <trkpt lat="43.52596" lon="6.31684">
        <ele>359</ele>
        <time>2019-06-04T08:25:33Z</time>
      </trkpt>
      <trkpt lat="43.52596" lon="6.3168">
        <ele>359</ele>
        <time>2019-06-04T08:25:36Z</time>
      </trkpt>
      <trkpt lat="43.52597" lon="6.31677">
        <ele>359</ele>
        <time>2019-06-04T08:25:39Z</time>
      </trkpt>
      <trkpt lat="43.52597" lon="6.31673">
        <ele>360</ele>
        <time>2019-06-04T08:25:44Z</time>
      </trkpt>
      <trkpt lat="43.52599" lon="6.31665">
        <ele>360</ele>
        <time>2019-06-04T08:25:47Z</time>
      </trkpt>
      <trkpt lat="43.52606" lon="6.31658">
        <ele>360</ele>
        <time>2019-06-04T08:25:55Z</time>
      </trkpt>
      <trkpt lat="43.52607" lon="6.31653">
        <ele>360</ele>
        <time>2019-06-04T08:25:58Z</time>
      </trkpt>
      <trkpt lat="43.52608" lon="6.31649">
        <ele>360</ele>
        <time>2019-06-04T08:26:01Z</time>
      </trkpt>
      <trkpt lat="43.52609" lon="6.31646">
        <ele>360</ele>
        <time>2019-06-04T08:26:03Z</time>
      </trkpt>
      <trkpt lat="43.52614" lon="6.31641">
        <ele>360</ele>
        <time>2019-06-04T08:26:12Z</time>
      </trkpt>
      <trkpt lat="43.52617" lon="6.31633">
        <ele>360</ele>
        <time>2019-06-04T08:26:18Z</time>
      </trkpt>
      <trkpt lat="43.52617" lon="6.31628">
        <ele>360</ele>
        <time>2019-06-04T08:26:23Z</time>
      </trkpt>
      <trkpt lat="43.52623" lon="6.31612">
        <ele>360</ele>
        <time>2019-06-04T08:26:34Z</time>
      </trkpt>
      <trkpt lat="43.52632" lon="6.31603">
        <ele>360</ele>
        <time>2019-06-04T08:26:43Z</time>
      </trkpt>
      <trkpt lat="43.52633" lon="6.31599">
        <ele>360</ele>
        <time>2019-06-04T08:26:47Z</time>
      </trkpt>
      <trkpt lat="43.52634" lon="6.31595">
        <ele>360</ele>
        <time>2019-06-04T08:26:51Z</time>
      </trkpt>
      <trkpt lat="43.52637" lon="6.31587">
        <ele>360</ele>
        <time>2019-06-04T08:27:01Z</time>
      </trkpt>
      <trkpt lat="43.5265" lon="6.3156">
        <ele>360</ele>
        <time>2019-06-04T08:27:24Z</time>
      </trkpt>
      <trkpt lat="43.52652" lon="6.31555">
        <ele>360</ele>
        <time>2019-06-04T08:27:29Z</time>
      </trkpt>
      <trkpt lat="43.52654" lon="6.31546">
        <ele>360</ele>
        <time>2019-06-04T08:27:35Z</time>
      </trkpt>
      <trkpt lat="43.52655" lon="6.31541">
        <ele>360</ele>
        <time>2019-06-04T08:27:38Z</time>
      </trkpt>
      <trkpt lat="43.52663" lon="6.31511">
        <ele>360</ele>
        <time>2019-06-04T08:28:02Z</time>
      </trkpt>
      <trkpt lat="43.52663" lon="6.31509">
        <ele>360</ele>
        <time>2019-06-04T08:28:04Z</time>
      </trkpt>
      <trkpt lat="43.52667" lon="6.315">
        <ele>360</ele>
        <time>2019-06-04T08:28:10Z</time>
      </trkpt>
      <trkpt lat="43.52669" lon="6.31497">
        <ele>360</ele>
        <time>2019-06-04T08:28:12Z</time>
      </trkpt>
      <trkpt lat="43.52671" lon="6.31492">
        <ele>360</ele>
        <time>2019-06-04T08:28:15Z</time>
      </trkpt>
      <trkpt lat="43.52675" lon="6.31487">
        <ele>360</ele>
        <time>2019-06-04T08:28:21Z</time>
      </trkpt>
      <trkpt lat="43.52676" lon="6.31479">
        <ele>360</ele>
        <time>2019-06-04T08:28:30Z</time>
      </trkpt>
      <trkpt lat="43.52678" lon="6.31476">
        <ele>360</ele>
        <time>2019-06-04T08:28:34Z</time>
      </trkpt>
      <trkpt lat="43.52682" lon="6.31468">
        <ele>360</ele>
        <time>2019-06-04T08:28:41Z</time>
      </trkpt>
      <trkpt lat="43.52683" lon="6.31464">
        <ele>360</ele>
        <time>2019-06-04T08:28:44Z</time>
      </trkpt>
      <trkpt lat="43.52683" lon="6.3145">
        <ele>361</ele>
        <time>2019-06-04T08:28:54Z</time>
      </trkpt>
      <trkpt lat="43.52687" lon="6.31443">
        <ele>361</ele>
        <time>2019-06-04T08:29:00Z</time>
      </trkpt>
      <trkpt lat="43.52688" lon="6.31441">
        <ele>361</ele>
        <time>2019-06-04T08:29:03Z</time>
      </trkpt>
      <trkpt lat="43.5269" lon="6.31437">
        <ele>361</ele>
        <time>2019-06-04T08:29:09Z</time>
      </trkpt>
      <trkpt lat="43.52692" lon="6.31433">
        <ele>361</ele>
        <time>2019-06-04T08:29:12Z</time>
      </trkpt>
      <trkpt lat="43.52694" lon="6.3142">
        <ele>361</ele>
        <time>2019-06-04T08:29:21Z</time>
      </trkpt>
      <trkpt lat="43.52696" lon="6.31415">
        <ele>361</ele>
        <time>2019-06-04T08:29:26Z</time>
      </trkpt>
      <trkpt lat="43.52697" lon="6.3141">
        <ele>361</ele>
        <time>2019-06-04T08:29:29Z</time>
      </trkpt>
      <trkpt lat="43.52697" lon="6.31406">
        <ele>361</ele>
        <time>2019-06-04T08:29:31Z</time>
      </trkpt>
      <trkpt lat="43.52698" lon="6.31403">
        <ele>361</ele>
        <time>2019-06-04T08:29:33Z</time>
      </trkpt>
      <trkpt lat="43.52703" lon="6.31387">
        <ele>361</ele>
        <time>2019-06-04T08:29:53Z</time>
      </trkpt>
      <trkpt lat="43.52706" lon="6.31379">
        <ele>361</ele>
        <time>2019-06-04T08:29:58Z</time>
      </trkpt>
      <trkpt lat="43.52707" lon="6.31375">
        <ele>361</ele>
        <time>2019-06-04T08:30:01Z</time>
      </trkpt>
      <trkpt lat="43.52708" lon="6.3137">
        <ele>361</ele>
        <time>2019-06-04T08:30:05Z</time>
      </trkpt>
      <trkpt lat="43.52711" lon="6.31357">
        <ele>361</ele>
        <time>2019-06-04T08:30:16Z</time>
      </trkpt>
      <trkpt lat="43.52712" lon="6.31354">
        <ele>361</ele>
        <time>2019-06-04T08:30:18Z</time>
      </trkpt>
      <trkpt lat="43.52712" lon="6.31349">
        <ele>361</ele>
        <time>2019-06-04T08:30:21Z</time>
      </trkpt>
      <trkpt lat="43.52714" lon="6.31347">
        <ele>361</ele>
        <time>2019-06-04T08:30:23Z</time>
      </trkpt>
      <trkpt lat="43.52715" lon="6.31338">
        <ele>361</ele>
        <time>2019-06-04T08:30:29Z</time>
      </trkpt>
      <trkpt lat="43.52716" lon="6.31334">
        <ele>361</ele>
        <time>2019-06-04T08:30:32Z</time>
      </trkpt>
      <trkpt lat="43.52717" lon="6.3133">
        <ele>362</ele>
        <time>2019-06-04T08:30:34Z</time>
      </trkpt>
      <trkpt lat="43.52719" lon="6.31327">
        <ele>362</ele>
        <time>2019-06-04T08:30:36Z</time>
      </trkpt>
      <trkpt lat="43.52723" lon="6.31315">
        <ele>362</ele>
        <time>2019-06-04T08:30:45Z</time>
      </trkpt>
      <trkpt lat="43.52727" lon="6.31302">
        <ele>362</ele>
        <time>2019-06-04T08:30:51Z</time>
      </trkpt>
      <trkpt lat="43.52726" lon="6.31294">
        <ele>362</ele>
        <time>2019-06-04T08:30:55Z</time>
      </trkpt>
      <trkpt lat="43.52727" lon="6.31289">
        <ele>362</ele>
        <time>2019-06-04T08:30:58Z</time>
      </trkpt>
      <trkpt lat="43.52731" lon="6.31272">
        <ele>362</ele>
        <time>2019-06-04T08:31:11Z</time>
      </trkpt>
      <trkpt lat="43.52734" lon="6.31264">
        <ele>362</ele>
        <time>2019-06-04T08:31:17Z</time>
      </trkpt>
      <trkpt lat="43.52738" lon="6.31258">
        <ele>362</ele>
        <time>2019-06-04T08:31:23Z</time>
      </trkpt>
      <trkpt lat="43.5274" lon="6.31253">
        <ele>362</ele>
        <time>2019-06-04T08:31:26Z</time>
      </trkpt>
      <trkpt lat="43.52741" lon="6.31249">
        <ele>362</ele>
        <time>2019-06-04T08:31:29Z</time>
      </trkpt>
      <trkpt lat="43.52741" lon="6.31243">
        <ele>362</ele>
        <time>2019-06-04T08:31:32Z</time>
      </trkpt>
      <trkpt lat="43.52742" lon="6.31233">
        <ele>362</ele>
        <time>2019-06-04T08:31:39Z</time>
      </trkpt>
      <trkpt lat="43.52744" lon="6.3123">
        <ele>362</ele>
        <time>2019-06-04T08:31:44Z</time>
      </trkpt>
      <trkpt lat="43.52745" lon="6.31226">
        <ele>362</ele>
        <time>2019-06-04T08:31:48Z</time>
      </trkpt>
      <trkpt lat="43.52747" lon="6.31218">
        <ele>363</ele>
        <time>2019-06-04T08:31:54Z</time>
      </trkpt>
      <trkpt lat="43.52748" lon="6.31208">
        <ele>363</ele>
        <time>2019-06-04T08:32:01Z</time>
      </trkpt>
      <trkpt lat="43.5275" lon="6.31205">
        <ele>363</ele>
        <time>2019-06-04T08:32:04Z</time>
      </trkpt>
      <trkpt lat="43.52752" lon="6.31202">
        <ele>363</ele>
        <time>2019-06-04T08:32:08Z</time>
      </trkpt>
      <trkpt lat="43.52754" lon="6.31194">
        <ele>363</ele>
        <time>2019-06-04T08:32:21Z</time>
      </trkpt>
      <trkpt lat="43.52757" lon="6.31181">
        <ele>363</ele>
        <time>2019-06-04T08:32:30Z</time>
      </trkpt>
      <trkpt lat="43.52766" lon="6.31182">
        <ele>363</ele>
        <time>2019-06-04T08:32:33Z</time>
      </trkpt>
      <trkpt lat="43.52766" lon="6.31176">
        <ele>363</ele>
        <time>2019-06-04T08:32:39Z</time>
      </trkpt>
      <trkpt lat="43.52768" lon="6.31173">
        <ele>363</ele>
        <time>2019-06-04T08:32:43Z</time>
      </trkpt>
      <trkpt lat="43.52767" lon="6.31169">
        <ele>363</ele>
        <time>2019-06-04T08:32:46Z</time>
      </trkpt>
      <trkpt lat="43.52768" lon="6.31165">
        <ele>363</ele>
        <time>2019-06-04T08:32:49Z</time>
      </trkpt>
      <trkpt lat="43.5277" lon="6.31162">
        <ele>363</ele>
        <time>2019-06-04T08:32:52Z</time>
      </trkpt>
      <trkpt lat="43.52772" lon="6.31159">
        <ele>363</ele>
        <time>2019-06-04T08:32:54Z</time>
      </trkpt>
      <trkpt lat="43.52775" lon="6.31156">
        <ele>364</ele>
        <time>2019-06-04T08:32:57Z</time>
      </trkpt>
      <trkpt lat="43.52782" lon="6.3114">
        <ele>364</ele>
        <time>2019-06-04T08:33:10Z</time>
      </trkpt>
      <trkpt lat="43.52784" lon="6.31135">
        <ele>364</ele>
        <time>2019-06-04T08:33:14Z</time>
      </trkpt>
      <trkpt lat="43.5279" lon="6.31115">
        <ele>364</ele>
        <time>2019-06-04T08:33:30Z</time>
      </trkpt>
      <trkpt lat="43.52796" lon="6.31111">
        <ele>364</ele>
        <time>2019-06-04T08:33:35Z</time>
      </trkpt>
      <trkpt lat="43.52799" lon="6.31104">
        <ele>364</ele>
        <time>2019-06-04T08:33:41Z</time>
      </trkpt>
      <trkpt lat="43.52801" lon="6.311">
        <ele>364</ele>
        <time>2019-06-04T08:33:43Z</time>
      </trkpt>
      <trkpt lat="43.52803" lon="6.31097">
        <ele>364</ele>
        <time>2019-06-04T08:33:45Z</time>
      </trkpt>
      <trkpt lat="43.52803" lon="6.31093">
        <ele>365</ele>
        <time>2019-06-04T08:33:48Z</time>
      </trkpt>
      <trkpt lat="43.52804" lon="6.3108">
        <ele>365</ele>
        <time>2019-06-04T08:33:58Z</time>
      </trkpt>
      <trkpt lat="43.52803" lon="6.31076">
        <ele>365</ele>
        <time>2019-06-04T08:34:03Z</time>
      </trkpt>
      <trkpt lat="43.52799" lon="6.31071">
        <ele>365</ele>
        <time>2019-06-04T08:34:12Z</time>
      </trkpt>
      <trkpt lat="43.52796" lon="6.31071">
        <ele>365</ele>
        <time>2019-06-04T08:34:28Z</time>
      </trkpt>
      <trkpt lat="43.52797" lon="6.31071">
        <ele>366</ele>
        <time>2019-06-04T08:36:28Z</time>
      </trkpt>
      <trkpt lat="43.52796" lon="6.31068">
        <ele>367</ele>
        <time>2019-06-04T08:37:26Z</time>
      </trkpt>
      <trkpt lat="43.52779" lon="6.31056">
        <ele>368</ele>
        <time>2019-06-04T08:37:37Z</time>
      </trkpt>
      <trkpt lat="43.52775" lon="6.31048">
        <ele>368</ele>
        <time>2019-06-04T08:37:44Z</time>
      </trkpt>
      <trkpt lat="43.52772" lon="6.31042">
        <ele>369</ele>
        <time>2019-06-04T08:37:48Z</time>
      </trkpt>
      <trkpt lat="43.52771" lon="6.31037">
        <ele>369</ele>
        <time>2019-06-04T08:37:51Z</time>
      </trkpt>
      <trkpt lat="43.52769" lon="6.31027">
        <ele>369</ele>
        <time>2019-06-04T08:37:59Z</time>
      </trkpt>
      <trkpt lat="43.5276" lon="6.30995">
        <ele>370</ele>
        <time>2019-06-04T08:38:20Z</time>
      </trkpt>
      <trkpt lat="43.5276" lon="6.30986">
        <ele>370</ele>
        <time>2019-06-04T08:38:30Z</time>
      </trkpt>
      <trkpt lat="43.52746" lon="6.30951">
        <ele>370</ele>
        <time>2019-06-04T08:39:00Z</time>
      </trkpt>
      <trkpt lat="43.52745" lon="6.30948">
        <ele>370</ele>
        <time>2019-06-04T08:39:02Z</time>
      </trkpt>
      <trkpt lat="43.52738" lon="6.30931">
        <ele>371</ele>
        <time>2019-06-04T08:39:17Z</time>
      </trkpt>
      <trkpt lat="43.52736" lon="6.30925">
        <ele>371</ele>
        <time>2019-06-04T08:39:22Z</time>
      </trkpt>
      <trkpt lat="43.52733" lon="6.30917">
        <ele>371</ele>
        <time>2019-06-04T08:39:26Z</time>
      </trkpt>
      <trkpt lat="43.52732" lon="6.30915">
        <ele>371</ele>
        <time>2019-06-04T08:39:28Z</time>
      </trkpt>
      <trkpt lat="43.52732" lon="6.30912">
        <ele>371</ele>
        <time>2019-06-04T08:39:30Z</time>
      </trkpt>
      <trkpt lat="43.52723" lon="6.30897">
        <ele>371</ele>
        <time>2019-06-04T08:39:40Z</time>
      </trkpt>
      <trkpt lat="43.52721" lon="6.30895">
        <ele>371</ele>
        <time>2019-06-04T08:39:42Z</time>
      </trkpt>
      <trkpt lat="43.52719" lon="6.3089">
        <ele>371</ele>
        <time>2019-06-04T08:39:44Z</time>
      </trkpt>
      <trkpt lat="43.5272" lon="6.30887">
        <ele>371</ele>
        <time>2019-06-04T08:39:49Z</time>
      </trkpt>
      <trkpt lat="43.52696" lon="6.30872">
        <ele>372</ele>
        <time>2019-06-04T08:40:10Z</time>
      </trkpt>
      <trkpt lat="43.5269" lon="6.30874">
        <ele>372</ele>
        <time>2019-06-04T08:40:18Z</time>
      </trkpt>
      <trkpt lat="43.52685" lon="6.30877">
        <ele>372</ele>
        <time>2019-06-04T08:40:27Z</time>
      </trkpt>
      <trkpt lat="43.52683" lon="6.30881">
        <ele>372</ele>
        <time>2019-06-04T08:40:31Z</time>
      </trkpt>
      <trkpt lat="43.52681" lon="6.30886">
        <ele>372</ele>
        <time>2019-06-04T08:40:34Z</time>
      </trkpt>
      <trkpt lat="43.52677" lon="6.30892">
        <ele>372</ele>
        <time>2019-06-04T08:40:39Z</time>
      </trkpt>
      <trkpt lat="43.52676" lon="6.30895">
        <ele>372</ele>
        <time>2019-06-04T08:40:41Z</time>
      </trkpt>
      <trkpt lat="43.5267" lon="6.30907">
        <ele>372</ele>
        <time>2019-06-04T08:40:51Z</time>
      </trkpt>
      <trkpt lat="43.52661" lon="6.30921">
        <ele>372</ele>
        <time>2019-06-04T08:41:04Z</time>
      </trkpt>
      <trkpt lat="43.52658" lon="6.30922">
        <ele>372</ele>
        <time>2019-06-04T08:41:06Z</time>
      </trkpt>
      <trkpt lat="43.52649" lon="6.30935">
        <ele>372</ele>
        <time>2019-06-04T08:41:16Z</time>
      </trkpt>
      <trkpt lat="43.52648" lon="6.30938">
        <ele>372</ele>
        <time>2019-06-04T08:41:18Z</time>
      </trkpt>
      <trkpt lat="43.52647" lon="6.30939">
        <ele>372</ele>
        <time>2019-06-04T08:41:20Z</time>
      </trkpt>
      <trkpt lat="43.52642" lon="6.30943">
        <ele>372</ele>
        <time>2019-06-04T08:41:24Z</time>
      </trkpt>
      <trkpt lat="43.5264" lon="6.30946">
        <ele>372</ele>
        <time>2019-06-04T08:41:27Z</time>
      </trkpt>
      <trkpt lat="43.52635" lon="6.30951">
        <ele>372</ele>
        <time>2019-06-04T08:41:33Z</time>
      </trkpt>
      <trkpt lat="43.52632" lon="6.30953">
        <ele>372</ele>
        <time>2019-06-04T08:41:38Z</time>
      </trkpt>
      <trkpt lat="43.52627" lon="6.30954">
        <ele>372</ele>
        <time>2019-06-04T08:41:49Z</time>
      </trkpt>
      <trkpt lat="43.5261" lon="6.30968">
        <ele>372</ele>
        <time>2019-06-04T08:42:32Z</time>
      </trkpt>
      <trkpt lat="43.52609" lon="6.30969">
        <ele>372</ele>
        <time>2019-06-04T08:42:44Z</time>
      </trkpt>
      <trkpt lat="43.52608" lon="6.30969">
        <ele>372</ele>
        <time>2019-06-04T08:43:00Z</time>
      </trkpt>
      <trkpt lat="43.52618" lon="6.30981">
        <ele>372</ele>
        <time>2019-06-04T08:43:11Z</time>
      </trkpt>
      <trkpt lat="43.52623" lon="6.30979">
        <ele>372</ele>
        <time>2019-06-04T08:43:13Z</time>
      </trkpt>
      <trkpt lat="43.52615" lon="6.30968">
        <ele>372</ele>
        <time>2019-06-04T08:43:17Z</time>
      </trkpt>
      <trkpt lat="43.52611" lon="6.30967">
        <ele>372</ele>
        <time>2019-06-04T08:43:18Z</time>
      </trkpt>
      <trkpt lat="43.52609" lon="6.30971">
        <ele>372</ele>
        <time>2019-06-04T08:43:25Z</time>
      </trkpt>
      <trkpt lat="43.52607" lon="6.30974">
        <ele>372</ele>
        <time>2019-06-04T08:43:36Z</time>
      </trkpt>
      <trkpt lat="43.52597" lon="6.3099">
        <ele>372</ele>
        <time>2019-06-04T08:43:51Z</time>
      </trkpt>
      <trkpt lat="43.52583" lon="6.31003">
        <ele>372</ele>
        <time>2019-06-04T08:44:04Z</time>
      </trkpt>
      <trkpt lat="43.52581" lon="6.31005">
        <ele>372</ele>
        <time>2019-06-04T08:44:07Z</time>
      </trkpt>
      <trkpt lat="43.52578" lon="6.31008">
        <ele>372</ele>
        <time>2019-06-04T08:44:11Z</time>
      </trkpt>
      <trkpt lat="43.52576" lon="6.31009">
        <ele>372</ele>
        <time>2019-06-04T08:44:14Z</time>
      </trkpt>
      <trkpt lat="43.52564" lon="6.3102">
        <ele>372</ele>
        <time>2019-06-04T08:44:25Z</time>
      </trkpt>
      <trkpt lat="43.52561" lon="6.31022">
        <ele>372</ele>
        <time>2019-06-04T08:44:27Z</time>
      </trkpt>
      <trkpt lat="43.52558" lon="6.31021">
        <ele>372</ele>
        <time>2019-06-04T08:44:31Z</time>
      </trkpt>
      <trkpt lat="43.52555" lon="6.31022">
        <ele>372</ele>
        <time>2019-06-04T08:44:35Z</time>
      </trkpt>
      <trkpt lat="43.52551" lon="6.31027">
        <ele>372</ele>
        <time>2019-06-04T08:44:42Z</time>
      </trkpt>
      <trkpt lat="43.52542" lon="6.31035">
        <ele>372</ele>
        <time>2019-06-04T08:44:51Z</time>
      </trkpt>
      <trkpt lat="43.52538" lon="6.31036">
        <ele>372</ele>
        <time>2019-06-04T08:44:56Z</time>
      </trkpt>
      <trkpt lat="43.52536" lon="6.31038">
        <ele>372</ele>
        <time>2019-06-04T08:45:01Z</time>
      </trkpt>
      <trkpt lat="43.52522" lon="6.31063">
        <ele>372</ele>
        <time>2019-06-04T08:45:23Z</time>
      </trkpt>
      <trkpt lat="43.52518" lon="6.31071">
        <ele>372</ele>
        <time>2019-06-04T08:45:31Z</time>
      </trkpt>
      <trkpt lat="43.52517" lon="6.31086">
        <ele>372</ele>
        <time>2019-06-04T08:45:40Z</time>
      </trkpt>
      <trkpt lat="43.52518" lon="6.3109">
        <ele>372</ele>
        <time>2019-06-04T08:45:42Z</time>
      </trkpt>
      <trkpt lat="43.52519" lon="6.31095">
        <ele>371</ele>
        <time>2019-06-04T08:45:45Z</time>
      </trkpt>
      <trkpt lat="43.5252" lon="6.31099">
        <ele>371</ele>
        <time>2019-06-04T08:45:48Z</time>
      </trkpt>
      <trkpt lat="43.5252" lon="6.31104">
        <ele>371</ele>
        <time>2019-06-04T08:45:53Z</time>
      </trkpt>
      <trkpt lat="43.52528" lon="6.31134">
        <ele>371</ele>
        <time>2019-06-04T08:46:19Z</time>
      </trkpt>
      <trkpt lat="43.52528" lon="6.31139">
        <ele>371</ele>
        <time>2019-06-04T08:46:22Z</time>
      </trkpt>
      <trkpt lat="43.52526" lon="6.31143">
        <ele>371</ele>
        <time>2019-06-04T08:46:37Z</time>
      </trkpt>
      <trkpt lat="43.52526" lon="6.31148">
        <ele>371</ele>
        <time>2019-06-04T08:46:40Z</time>
      </trkpt>
      <trkpt lat="43.52525" lon="6.31153">
        <ele>371</ele>
        <time>2019-06-04T08:46:42Z</time>
      </trkpt>
      <trkpt lat="43.52521" lon="6.31164">
        <ele>371</ele>
        <time>2019-06-04T08:46:50Z</time>
      </trkpt>
      <trkpt lat="43.52518" lon="6.31174">
        <ele>371</ele>
        <time>2019-06-04T08:46:55Z</time>
      </trkpt>
      <trkpt lat="43.52518" lon="6.31178">
        <ele>371</ele>
        <time>2019-06-04T08:46:59Z</time>
      </trkpt>
      <trkpt lat="43.52514" lon="6.3119">
        <ele>370</ele>
        <time>2019-06-04T08:47:08Z</time>
      </trkpt>
      <trkpt lat="43.52514" lon="6.31199">
        <ele>370</ele>
        <time>2019-06-04T08:47:13Z</time>
      </trkpt>
      <trkpt lat="43.5251" lon="6.31212">
        <ele>370</ele>
        <time>2019-06-04T08:47:27Z</time>
      </trkpt>
      <trkpt lat="43.52509" lon="6.31215">
        <ele>370</ele>
        <time>2019-06-04T08:47:29Z</time>
      </trkpt>
      <trkpt lat="43.52508" lon="6.31217">
        <ele>370</ele>
        <time>2019-06-04T08:47:31Z</time>
      </trkpt>
      <trkpt lat="43.52505" lon="6.31223">
        <ele>370</ele>
        <time>2019-06-04T08:47:36Z</time>
      </trkpt>
      <trkpt lat="43.525" lon="6.3123">
        <ele>370</ele>
        <time>2019-06-04T08:47:43Z</time>
      </trkpt>
      <trkpt lat="43.52495" lon="6.31234">
        <ele>369</ele>
        <time>2019-06-04T08:47:47Z</time>
      </trkpt>
      <trkpt lat="43.52493" lon="6.31235">
        <ele>369</ele>
        <time>2019-06-04T08:47:48Z</time>
      </trkpt>
      <trkpt lat="43.5249" lon="6.31235">
        <ele>369</ele>
        <time>2019-06-04T08:47:49Z</time>
      </trkpt>
      <trkpt lat="43.52485" lon="6.31239">
        <ele>369</ele>
        <time>2019-06-04T08:47:54Z</time>
      </trkpt>
      <trkpt lat="43.52476" lon="6.31245">
        <ele>369</ele>
        <time>2019-06-04T08:48:04Z</time>
      </trkpt>
      <trkpt lat="43.52456" lon="6.31251">
        <ele>369</ele>
        <time>2019-06-04T08:48:20Z</time>
      </trkpt>
      <trkpt lat="43.52453" lon="6.31251">
        <ele>369</ele>
        <time>2019-06-04T08:48:24Z</time>
      </trkpt>
      <trkpt lat="43.5245" lon="6.31253">
        <ele>369</ele>
        <time>2019-06-04T08:48:29Z</time>
      </trkpt>
      <trkpt lat="43.52447" lon="6.31255">
        <ele>369</ele>
        <time>2019-06-04T08:48:34Z</time>
      </trkpt>
      <trkpt lat="43.52445" lon="6.31258">
        <ele>368</ele>
        <time>2019-06-04T08:48:38Z</time>
      </trkpt>
      <trkpt lat="43.52442" lon="6.31261">
        <ele>368</ele>
        <time>2019-06-04T08:48:42Z</time>
      </trkpt>
      <trkpt lat="43.52439" lon="6.31262">
        <ele>368</ele>
        <time>2019-06-04T08:48:44Z</time>
      </trkpt>
      <trkpt lat="43.52431" lon="6.31269">
        <ele>368</ele>
        <time>2019-06-04T08:48:55Z</time>
      </trkpt>
      <trkpt lat="43.52426" lon="6.31275">
        <ele>368</ele>
        <time>2019-06-04T08:49:02Z</time>
      </trkpt>
      <trkpt lat="43.52425" lon="6.3127">
        <ele>368</ele>
        <time>2019-06-04T08:49:29Z</time>
      </trkpt>
      <trkpt lat="43.52422" lon="6.31274">
        <ele>368</ele>
        <time>2019-06-04T08:49:46Z</time>
      </trkpt>
      <trkpt lat="43.52418" lon="6.31275">
        <ele>367</ele>
        <time>2019-06-04T08:49:49Z</time>
      </trkpt>
      <trkpt lat="43.5242" lon="6.31264">
        <ele>367</ele>
        <time>2019-06-04T08:49:55Z</time>
      </trkpt>
      <trkpt lat="43.52417" lon="6.31265">
        <ele>367</ele>
        <time>2019-06-04T08:50:00Z</time>
      </trkpt>
      <trkpt lat="43.52417" lon="6.3127">
        <ele>367</ele>
        <time>2019-06-04T08:50:22Z</time>
      </trkpt>
      <trkpt lat="43.52414" lon="6.31271">
        <ele>367</ele>
        <time>2019-06-04T08:50:40Z</time>
      </trkpt>
      <trkpt lat="43.52413" lon="6.31276">
        <ele>366</ele>
        <time>2019-06-04T08:51:25Z</time>
      </trkpt>
      <trkpt lat="43.52414" lon="6.31281">
        <ele>366</ele>
        <time>2019-06-04T08:51:29Z</time>
      </trkpt>
      <trkpt lat="43.52412" lon="6.31285">
        <ele>366</ele>
        <time>2019-06-04T08:51:32Z</time>
      </trkpt>
      <trkpt lat="43.52409" lon="6.31288">
        <ele>366</ele>
        <time>2019-06-04T08:53:03Z</time>
      </trkpt>
      <trkpt lat="43.52407" lon="6.31291">
        <ele>366</ele>
        <time>2019-06-04T08:53:05Z</time>
      </trkpt>
      <trkpt lat="43.52406" lon="6.31294">
        <ele>365</ele>
        <time>2019-06-04T08:53:07Z</time>
      </trkpt>
      <trkpt lat="43.52404" lon="6.31302">
        <ele>365</ele>
        <time>2019-06-04T08:53:13Z</time>
      </trkpt>
      <trkpt lat="43.52403" lon="6.31304">
        <ele>365</ele>
        <time>2019-06-04T08:53:16Z</time>
      </trkpt>
      <trkpt lat="43.52401" lon="6.31306">
        <ele>365</ele>
        <time>2019-06-04T08:53:20Z</time>
      </trkpt>
      <trkpt lat="43.52399" lon="6.3131">
        <ele>365</ele>
        <time>2019-06-04T08:53:25Z</time>
      </trkpt>
      <trkpt lat="43.52397" lon="6.31313">
        <ele>365</ele>
        <time>2019-06-04T08:53:28Z</time>
      </trkpt>
      <trkpt lat="43.52395" lon="6.31315">
        <ele>365</ele>
        <time>2019-06-04T08:53:30Z</time>
      </trkpt>
      <trkpt lat="43.52394" lon="6.31321">
        <ele>365</ele>
        <time>2019-06-04T08:53:34Z</time>
      </trkpt>
      <trkpt lat="43.52392" lon="6.31323">
        <ele>365</ele>
        <time>2019-06-04T08:53:36Z</time>
      </trkpt>
      <trkpt lat="43.52391" lon="6.31325">
        <ele>365</ele>
        <time>2019-06-04T08:53:38Z</time>
      </trkpt>
      <trkpt lat="43.5239" lon="6.31328">
        <ele>365</ele>
        <time>2019-06-04T08:53:40Z</time>
      </trkpt>
      <trkpt lat="43.52385" lon="6.31333">
        <ele>364</ele>
        <time>2019-06-04T08:53:48Z</time>
      </trkpt>
      <trkpt lat="43.52379" lon="6.31335">
        <ele>364</ele>
        <time>2019-06-04T08:53:52Z</time>
      </trkpt>
      <trkpt lat="43.52375" lon="6.31333">
        <ele>364</ele>
        <time>2019-06-04T08:53:57Z</time>
      </trkpt>
      <trkpt lat="43.52372" lon="6.31336">
        <ele>364</ele>
        <time>2019-06-04T08:54:00Z</time>
      </trkpt>
      <trkpt lat="43.52364" lon="6.31335">
        <ele>364</ele>
        <time>2019-06-04T08:54:05Z</time>
      </trkpt>
      <trkpt lat="43.52362" lon="6.31336">
        <ele>364</ele>
        <time>2019-06-04T08:54:14Z</time>
      </trkpt>
      <trkpt lat="43.52359" lon="6.31336">
        <ele>364</ele>
        <time>2019-06-04T08:54:20Z</time>
      </trkpt>
      <trkpt lat="43.52353" lon="6.31337">
        <ele>364</ele>
        <time>2019-06-04T08:54:29Z</time>
      </trkpt>
      <trkpt lat="43.52347" lon="6.3134">
        <ele>363</ele>
        <time>2019-06-04T08:54:34Z</time>
      </trkpt>
      <trkpt lat="43.52337" lon="6.31343">
        <ele>363</ele>
        <time>2019-06-04T08:54:42Z</time>
      </trkpt>
      <trkpt lat="43.52334" lon="6.31345">
        <ele>363</ele>
        <time>2019-06-04T08:54:44Z</time>
      </trkpt>
      <trkpt lat="43.52327" lon="6.31351">
        <ele>363</ele>
        <time>2019-06-04T08:54:54Z</time>
      </trkpt>
      <trkpt lat="43.52322" lon="6.31355">
        <ele>363</ele>
        <time>2019-06-04T08:55:00Z</time>
      </trkpt>
      <trkpt lat="43.52318" lon="6.31365">
        <ele>363</ele>
        <time>2019-06-04T08:55:08Z</time>
      </trkpt>
      <trkpt lat="43.52316" lon="6.31368">
        <ele>363</ele>
        <time>2019-06-04T08:55:13Z</time>
      </trkpt>
      <trkpt lat="43.52313" lon="6.3137">
        <ele>363</ele>
        <time>2019-06-04T08:55:16Z</time>
      </trkpt>
      <trkpt lat="43.52302" lon="6.31378">
        <ele>363</ele>
        <time>2019-06-04T08:55:25Z</time>
      </trkpt>
      <trkpt lat="43.52285" lon="6.31386">
        <ele>362</ele>
        <time>2019-06-04T08:55:41Z</time>
      </trkpt>
      <trkpt lat="43.52277" lon="6.31384">
        <ele>362</ele>
        <time>2019-06-04T08:55:46Z</time>
      </trkpt>
      <trkpt lat="43.52266" lon="6.31385">
        <ele>362</ele>
        <time>2019-06-04T08:55:55Z</time>
      </trkpt>
      <trkpt lat="43.52266" lon="6.31381">
        <ele>362</ele>
        <time>2019-06-04T08:55:58Z</time>
      </trkpt>
      <trkpt lat="43.52266" lon="6.31377">
        <ele>362</ele>
        <time>2019-06-04T08:56:01Z</time>
      </trkpt>
      <trkpt lat="43.52264" lon="6.31375">
        <ele>362</ele>
        <time>2019-06-04T08:56:11Z</time>
      </trkpt>
      <trkpt lat="43.52258" lon="6.31379">
        <ele>362</ele>
        <time>2019-06-04T08:56:26Z</time>
      </trkpt>
      <trkpt lat="43.52254" lon="6.31378">
        <ele>361</ele>
        <time>2019-06-04T08:56:29Z</time>
      </trkpt>
      <trkpt lat="43.52251" lon="6.31379">
        <ele>361</ele>
        <time>2019-06-04T08:56:32Z</time>
      </trkpt>
      <trkpt lat="43.52249" lon="6.31383">
        <ele>361</ele>
        <time>2019-06-04T08:56:40Z</time>
      </trkpt>
      <trkpt lat="43.52239" lon="6.31388">
        <ele>360</ele>
        <time>2019-06-04T08:56:54Z</time>
      </trkpt>
      <trkpt lat="43.52234" lon="6.31389">
        <ele>360</ele>
        <time>2019-06-04T08:56:58Z</time>
      </trkpt>
      <trkpt lat="43.52222" lon="6.3139">
        <ele>360</ele>
        <time>2019-06-04T08:57:04Z</time>
      </trkpt>
      <trkpt lat="43.52196" lon="6.31391">
        <ele>359</ele>
        <time>2019-06-04T08:57:29Z</time>
      </trkpt>
      <trkpt lat="43.52178" lon="6.31385">
        <ele>359</ele>
        <time>2019-06-04T08:57:45Z</time>
      </trkpt>
      <trkpt lat="43.52171" lon="6.31381">
        <ele>359</ele>
        <time>2019-06-04T08:57:51Z</time>
      </trkpt>
      <trkpt lat="43.52169" lon="6.3138">
        <ele>359</ele>
        <time>2019-06-04T08:57:53Z</time>
      </trkpt>
      <trkpt lat="43.52152" lon="6.31376">
        <ele>358</ele>
        <time>2019-06-04T08:58:06Z</time>
      </trkpt>
      <trkpt lat="43.52136" lon="6.31367">
        <ele>358</ele>
        <time>2019-06-04T08:58:22Z</time>
      </trkpt>
      <trkpt lat="43.52133" lon="6.31366">
        <ele>358</ele>
        <time>2019-06-04T08:58:27Z</time>
      </trkpt>
      <trkpt lat="43.52129" lon="6.31367">
        <ele>358</ele>
        <time>2019-06-04T08:58:29Z</time>
      </trkpt>
      <trkpt lat="43.52128" lon="6.3136">
        <ele>358</ele>
        <time>2019-06-04T08:58:37Z</time>
      </trkpt>
      <trkpt lat="43.52134" lon="6.31359">
        <ele>357</ele>
        <time>2019-06-04T08:58:39Z</time>
      </trkpt>
      <trkpt lat="43.52141" lon="6.31357">
        <ele>357</ele>
        <time>2019-06-04T08:58:41Z</time>
      </trkpt>
      <trkpt lat="43.52148" lon="6.31357">
        <ele>357</ele>
        <time>2019-06-04T08:58:43Z</time>
      </trkpt>
      <trkpt lat="43.52133" lon="6.31368">
        <ele>357</ele>
        <time>2019-06-04T08:58:50Z</time>
      </trkpt>
      <trkpt lat="43.52133" lon="6.31367">
        <ele>353</ele>
        <time>2019-06-04T08:59:35Z</time>
      </trkpt>
      <trkpt lat="43.52129" lon="6.31364">
        <ele>351</ele>
        <time>2019-06-04T08:59:45Z</time>
      </trkpt>
      <trkpt lat="43.52128" lon="6.31359">
        <ele>349</ele>
        <time>2019-06-04T08:59:54Z</time>
      </trkpt>
      <trkpt lat="43.52125" lon="6.31356">
        <ele>348</ele>
        <time>2019-06-04T09:00:11Z</time>
      </trkpt>
      <trkpt lat="43.52123" lon="6.31351">
        <ele>345</ele>
        <time>2019-06-04T09:00:20Z</time>
      </trkpt>
      <trkpt lat="43.5212" lon="6.31346">
        <ele>344</ele>
        <time>2019-06-04T09:00:24Z</time>
      </trkpt>
      <trkpt lat="43.52117" lon="6.31342">
        <ele>343</ele>
        <time>2019-06-04T09:00:28Z</time>
      </trkpt>
      <trkpt lat="43.52103" lon="6.3133">
        <ele>341</ele>
        <time>2019-06-04T09:00:42Z</time>
      </trkpt>
      <trkpt lat="43.52099" lon="6.31328">
        <ele>340</ele>
        <time>2019-06-04T09:00:46Z</time>
      </trkpt>
      <trkpt lat="43.52091" lon="6.31319">
        <ele>339</ele>
        <time>2019-06-04T09:00:56Z</time>
      </trkpt>
      <trkpt lat="43.52088" lon="6.31316">
        <ele>339</ele>
        <time>2019-06-04T09:00:58Z</time>
      </trkpt>
      <trkpt lat="43.52086" lon="6.31313">
        <ele>339</ele>
        <time>2019-06-04T09:01:01Z</time>
      </trkpt>
      <trkpt lat="43.52084" lon="6.3131">
        <ele>339</ele>
        <time>2019-06-04T09:01:03Z</time>
      </trkpt>
      <trkpt lat="43.52083" lon="6.31308">
        <ele>338</ele>
        <time>2019-06-04T09:01:05Z</time>
      </trkpt>
      <trkpt lat="43.52082" lon="6.31306">
        <ele>338</ele>
        <time>2019-06-04T09:01:07Z</time>
      </trkpt>
      <trkpt lat="43.52076" lon="6.313">
        <ele>338</ele>
        <time>2019-06-04T09:01:13Z</time>
      </trkpt>
      <trkpt lat="43.52074" lon="6.31298">
        <ele>338</ele>
        <time>2019-06-04T09:01:15Z</time>
      </trkpt>
      <trkpt lat="43.52071" lon="6.31293">
        <ele>338</ele>
        <time>2019-06-04T09:01:19Z</time>
      </trkpt>
      <trkpt lat="43.5207" lon="6.3129">
        <ele>338</ele>
        <time>2019-06-04T09:01:21Z</time>
      </trkpt>
      <trkpt lat="43.5207" lon="6.31287">
        <ele>338</ele>
        <time>2019-06-04T09:01:23Z</time>
      </trkpt>
      <trkpt lat="43.52065" lon="6.31252">
        <ele>338</ele>
        <time>2019-06-04T09:01:45Z</time>
      </trkpt>
      <trkpt lat="43.52061" lon="6.31243">
        <ele>338</ele>
        <time>2019-06-04T09:01:53Z</time>
      </trkpt>
      <trkpt lat="43.52058" lon="6.31227">
        <ele>338</ele>
        <time>2019-06-04T09:02:03Z</time>
      </trkpt>
      <trkpt lat="43.52058" lon="6.31224">
        <ele>338</ele>
        <time>2019-06-04T09:02:05Z</time>
      </trkpt>
      <trkpt lat="43.52058" lon="6.31217">
        <ele>338</ele>
        <time>2019-06-04T09:02:10Z</time>
      </trkpt>
      <trkpt lat="43.52056" lon="6.31215">
        <ele>338</ele>
        <time>2019-06-04T09:02:13Z</time>
      </trkpt>
      <trkpt lat="43.52055" lon="6.31212">
        <ele>339</ele>
        <time>2019-06-04T09:02:15Z</time>
      </trkpt>
      <trkpt lat="43.52052" lon="6.31207">
        <ele>339</ele>
        <time>2019-06-04T09:02:27Z</time>
      </trkpt>
      <trkpt lat="43.52052" lon="6.31206">
        <ele>339</ele>
        <time>2019-06-04T09:02:46Z</time>
      </trkpt>
      <trkpt lat="43.52049" lon="6.31209">
        <ele>339</ele>
        <time>2019-06-04T09:02:53Z</time>
      </trkpt>
      <trkpt lat="43.52047" lon="6.31211">
        <ele>339</ele>
        <time>2019-06-04T09:02:59Z</time>
      </trkpt>
      <trkpt lat="43.52043" lon="6.31225">
        <ele>338</ele>
        <time>2019-06-04T09:03:10Z</time>
      </trkpt>
      <trkpt lat="43.5204" lon="6.31232">
        <ele>338</ele>
        <time>2019-06-04T09:03:19Z</time>
      </trkpt>
      <trkpt lat="43.52038" lon="6.31237">
        <ele>338</ele>
        <time>2019-06-04T09:03:23Z</time>
      </trkpt>
      <trkpt lat="43.52035" lon="6.31239">
        <ele>338</ele>
        <time>2019-06-04T09:03:25Z</time>
      </trkpt>
      <trkpt lat="43.52033" lon="6.31243">
        <ele>338</ele>
        <time>2019-06-04T09:03:28Z</time>
      </trkpt>
      <trkpt lat="43.5203" lon="6.31249">
        <ele>337</ele>
        <time>2019-06-04T09:03:32Z</time>
      </trkpt>
      <trkpt lat="43.52026" lon="6.31253">
        <ele>337</ele>
        <time>2019-06-04T09:03:36Z</time>
      </trkpt>
      <trkpt lat="43.51992" lon="6.31272">
        <ele>337</ele>
        <time>2019-06-04T09:04:06Z</time>
      </trkpt>
      <trkpt lat="43.51989" lon="6.31272">
        <ele>337</ele>
        <time>2019-06-04T09:04:09Z</time>
      </trkpt>
      <trkpt lat="43.51986" lon="6.31275">
        <ele>337</ele>
        <time>2019-06-04T09:04:11Z</time>
      </trkpt>
      <trkpt lat="43.51983" lon="6.31275">
        <ele>336</ele>
        <time>2019-06-04T09:04:15Z</time>
      </trkpt>
      <trkpt lat="43.51981" lon="6.31276">
        <ele>336</ele>
        <time>2019-06-04T09:04:19Z</time>
      </trkpt>
      <trkpt lat="43.51976" lon="6.31276">
        <ele>336</ele>
        <time>2019-06-04T09:04:22Z</time>
      </trkpt>
      <trkpt lat="43.51971" lon="6.31281">
        <ele>336</ele>
        <time>2019-06-04T09:04:27Z</time>
      </trkpt>
      <trkpt lat="43.5197" lon="6.31285">
        <ele>336</ele>
        <time>2019-06-04T09:04:36Z</time>
      </trkpt>
      <trkpt lat="43.51969" lon="6.31284">
        <ele>336</ele>
        <time>2019-06-04T09:04:49Z</time>
      </trkpt>
      <trkpt lat="43.51962" lon="6.31285">
        <ele>335</ele>
        <time>2019-06-04T09:05:11Z</time>
      </trkpt>
      <trkpt lat="43.5196" lon="6.31281">
        <ele>335</ele>
        <time>2019-06-04T09:05:16Z</time>
      </trkpt>
      <trkpt lat="43.51961" lon="6.31277">
        <ele>335</ele>
        <time>2019-06-04T09:05:32Z</time>
      </trkpt>
      <trkpt lat="43.5196" lon="6.31274">
        <ele>335</ele>
        <time>2019-06-04T09:05:43Z</time>
      </trkpt>
      <trkpt lat="43.51957" lon="6.31274">
        <ele>335</ele>
        <time>2019-06-04T09:05:49Z</time>
      </trkpt>
      <trkpt lat="43.51952" lon="6.31275">
        <ele>334</ele>
        <time>2019-06-04T09:05:51Z</time>
      </trkpt>
      <trkpt lat="43.51959" lon="6.3128">
        <ele>334</ele>
        <time>2019-06-04T09:06:03Z</time>
      </trkpt>
      <trkpt lat="43.51962" lon="6.31276">
        <ele>333</ele>
        <time>2019-06-04T09:06:14Z</time>
      </trkpt>
      <trkpt lat="43.51959" lon="6.31275">
        <ele>333</ele>
        <time>2019-06-04T09:06:18Z</time>
      </trkpt>
      <trkpt lat="43.51956" lon="6.31272">
        <ele>333</ele>
        <time>2019-06-04T09:06:23Z</time>
      </trkpt>
      <trkpt lat="43.51954" lon="6.31267">
        <ele>333</ele>
        <time>2019-06-04T09:06:27Z</time>
      </trkpt>
      <trkpt lat="43.51953" lon="6.31246">
        <ele>332</ele>
        <time>2019-06-04T09:06:38Z</time>
      </trkpt>
      <trkpt lat="43.51948" lon="6.31238">
        <ele>332</ele>
        <time>2019-06-04T09:06:44Z</time>
      </trkpt>
      <trkpt lat="43.51938" lon="6.31227">
        <ele>332</ele>
        <time>2019-06-04T09:06:57Z</time>
      </trkpt>
      <trkpt lat="43.51918" lon="6.3123">
        <ele>332</ele>
        <time>2019-06-04T09:07:20Z</time>
      </trkpt>
      <trkpt lat="43.51911" lon="6.31231">
        <ele>332</ele>
        <time>2019-06-04T09:07:25Z</time>
      </trkpt>
      <trkpt lat="43.51907" lon="6.31232">
        <ele>331</ele>
        <time>2019-06-04T09:07:28Z</time>
      </trkpt>
      <trkpt lat="43.51904" lon="6.31232">
        <ele>331</ele>
        <time>2019-06-04T09:07:31Z</time>
      </trkpt>
      <trkpt lat="43.51878" lon="6.3123">
        <ele>331</ele>
        <time>2019-06-04T09:07:49Z</time>
      </trkpt>
      <trkpt lat="43.51853" lon="6.31235">
        <ele>331</ele>
        <time>2019-06-04T09:08:13Z</time>
      </trkpt>
      <trkpt lat="43.51849" lon="6.31234">
        <ele>331</ele>
        <time>2019-06-04T09:08:16Z</time>
      </trkpt>
      <trkpt lat="43.51847" lon="6.31232">
        <ele>331</ele>
        <time>2019-06-04T09:08:21Z</time>
      </trkpt>
      <trkpt lat="43.51831" lon="6.3122">
        <ele>331</ele>
        <time>2019-06-04T09:08:40Z</time>
      </trkpt>
      <trkpt lat="43.51819" lon="6.31221">
        <ele>331</ele>
        <time>2019-06-04T09:08:49Z</time>
      </trkpt>
      <trkpt lat="43.51813" lon="6.3122">
        <ele>331</ele>
        <time>2019-06-04T09:08:55Z</time>
      </trkpt>
      <trkpt lat="43.5181" lon="6.3122">
        <ele>331</ele>
        <time>2019-06-04T09:08:59Z</time>
      </trkpt>
      <trkpt lat="43.51803" lon="6.31218">
        <ele>331</ele>
        <time>2019-06-04T09:09:06Z</time>
      </trkpt>
      <trkpt lat="43.518" lon="6.31216">
        <ele>331</ele>
        <time>2019-06-04T09:09:09Z</time>
      </trkpt>
      <trkpt lat="43.51795" lon="6.31211">
        <ele>331</ele>
        <time>2019-06-04T09:09:12Z</time>
      </trkpt>
      <trkpt lat="43.51792" lon="6.31203">
        <ele>331</ele>
        <time>2019-06-04T09:09:16Z</time>
      </trkpt>
      <trkpt lat="43.5179" lon="6.31198">
        <ele>330</ele>
        <time>2019-06-04T09:09:20Z</time>
      </trkpt>
      <trkpt lat="43.5179" lon="6.31193">
        <ele>330</ele>
        <time>2019-06-04T09:09:26Z</time>
      </trkpt>
      <trkpt lat="43.51766" lon="6.31166">
        <ele>330</ele>
        <time>2019-06-04T09:09:57Z</time>
      </trkpt>
      <trkpt lat="43.51763" lon="6.31163">
        <ele>330</ele>
        <time>2019-06-04T09:09:59Z</time>
      </trkpt>
      <trkpt lat="43.51743" lon="6.31145">
        <ele>330</ele>
        <time>2019-06-04T09:10:24Z</time>
      </trkpt>
      <trkpt lat="43.51741" lon="6.31143">
        <ele>330</ele>
        <time>2019-06-04T09:10:26Z</time>
      </trkpt>
      <trkpt lat="43.5172" lon="6.31135">
        <ele>329</ele>
        <time>2019-06-04T09:11:20Z</time>
      </trkpt>
      <trkpt lat="43.51713" lon="6.31128">
        <ele>329</ele>
        <time>2019-06-04T09:11:25Z</time>
      </trkpt>
      <trkpt lat="43.51692" lon="6.31124">
        <ele>329</ele>
        <time>2019-06-04T09:11:38Z</time>
      </trkpt>
      <trkpt lat="43.51686" lon="6.31122">
        <ele>329</ele>
        <time>2019-06-04T09:11:42Z</time>
      </trkpt>
      <trkpt lat="43.51683" lon="6.3112">
        <ele>329</ele>
        <time>2019-06-04T09:11:45Z</time>
      </trkpt>
      <trkpt lat="43.5168" lon="6.3112">
        <ele>328</ele>
        <time>2019-06-04T09:11:47Z</time>
      </trkpt>
      <trkpt lat="43.51677" lon="6.3112">
        <ele>328</ele>
        <time>2019-06-04T09:11:49Z</time>
      </trkpt>
      <trkpt lat="43.51674" lon="6.3112">
        <ele>328</ele>
        <time>2019-06-04T09:11:51Z</time>
      </trkpt>
      <trkpt lat="43.51671" lon="6.31121">
        <ele>328</ele>
        <time>2019-06-04T09:11:53Z</time>
      </trkpt>
      <trkpt lat="43.51668" lon="6.31124">
        <ele>328</ele>
        <time>2019-06-04T09:11:55Z</time>
      </trkpt>
      <trkpt lat="43.51663" lon="6.31128">
        <ele>328</ele>
        <time>2019-06-04T09:12:02Z</time>
      </trkpt>
      <trkpt lat="43.51661" lon="6.31131">
        <ele>328</ele>
        <time>2019-06-04T09:12:05Z</time>
      </trkpt>
      <trkpt lat="43.51635" lon="6.31147">
        <ele>327</ele>
        <time>2019-06-04T09:12:34Z</time>
      </trkpt>
      <trkpt lat="43.51631" lon="6.31147">
        <ele>327</ele>
        <time>2019-06-04T09:12:38Z</time>
      </trkpt>
      <trkpt lat="43.51625" lon="6.31148">
        <ele>327</ele>
        <time>2019-06-04T09:12:44Z</time>
      </trkpt>
      <trkpt lat="43.51623" lon="6.31151">
        <ele>327</ele>
        <time>2019-06-04T09:12:46Z</time>
      </trkpt>
      <trkpt lat="43.51619" lon="6.31151">
        <ele>327</ele>
        <time>2019-06-04T09:12:50Z</time>
      </trkpt>
      <trkpt lat="43.51604" lon="6.31164">
        <ele>326</ele>
        <time>2019-06-04T09:13:04Z</time>
      </trkpt>
      <trkpt lat="43.51595" lon="6.31168">
        <ele>326</ele>
        <time>2019-06-04T09:13:12Z</time>
      </trkpt>
      <trkpt lat="43.51589" lon="6.31173">
        <ele>326</ele>
        <time>2019-06-04T09:13:19Z</time>
      </trkpt>
      <trkpt lat="43.51583" lon="6.31175">
        <ele>326</ele>
        <time>2019-06-04T09:13:24Z</time>
      </trkpt>
      <trkpt lat="43.51567" lon="6.31185">
        <ele>325</ele>
        <time>2019-06-04T09:13:38Z</time>
      </trkpt>
      <trkpt lat="43.51565" lon="6.31183">
        <ele>325</ele>
        <time>2019-06-04T09:13:44Z</time>
      </trkpt>
      <trkpt lat="43.51559" lon="6.31193">
        <ele>325</ele>
        <time>2019-06-04T09:13:57Z</time>
      </trkpt>
      <trkpt lat="43.51553" lon="6.3121">
        <ele>325</ele>
        <time>2019-06-04T09:14:08Z</time>
      </trkpt>
      <trkpt lat="43.51551" lon="6.31214">
        <ele>325</ele>
        <time>2019-06-04T09:14:12Z</time>
      </trkpt>
      <trkpt lat="43.51549" lon="6.31217">
        <ele>325</ele>
        <time>2019-06-04T09:14:15Z</time>
      </trkpt>
      <trkpt lat="43.51547" lon="6.31219">
        <ele>324</ele>
        <time>2019-06-04T09:14:18Z</time>
      </trkpt>
      <trkpt lat="43.51543" lon="6.31226">
        <ele>324</ele>
        <time>2019-06-04T09:14:23Z</time>
      </trkpt>
      <trkpt lat="43.51534" lon="6.3124">
        <ele>324</ele>
        <time>2019-06-04T09:14:33Z</time>
      </trkpt>
      <trkpt lat="43.51497" lon="6.31263">
        <ele>324</ele>
        <time>2019-06-04T09:15:03Z</time>
      </trkpt>
      <trkpt lat="43.51494" lon="6.31264">
        <ele>324</ele>
        <time>2019-06-04T09:15:06Z</time>
      </trkpt>
      <trkpt lat="43.51486" lon="6.31268">
        <ele>323</ele>
        <time>2019-06-04T09:15:14Z</time>
      </trkpt>
      <trkpt lat="43.51477" lon="6.31273">
        <ele>323</ele>
        <time>2019-06-04T09:15:25Z</time>
      </trkpt>
      <trkpt lat="43.51473" lon="6.31274">
        <ele>323</ele>
        <time>2019-06-04T09:15:28Z</time>
      </trkpt>
      <trkpt lat="43.51466" lon="6.31272">
        <ele>323</ele>
        <time>2019-06-04T09:15:33Z</time>
      </trkpt>
      <trkpt lat="43.51457" lon="6.31276">
        <ele>323</ele>
        <time>2019-06-04T09:15:41Z</time>
      </trkpt>
      <trkpt lat="43.5145" lon="6.31275">
        <ele>323</ele>
        <time>2019-06-04T09:15:47Z</time>
      </trkpt>
      <trkpt lat="43.51445" lon="6.3127">
        <ele>323</ele>
        <time>2019-06-04T09:15:52Z</time>
      </trkpt>
      <trkpt lat="43.51442" lon="6.31268">
        <ele>323</ele>
        <time>2019-06-04T09:15:55Z</time>
      </trkpt>
      <trkpt lat="43.5143" lon="6.31252">
        <ele>322</ele>
        <time>2019-06-04T09:16:09Z</time>
      </trkpt>
      <trkpt lat="43.51429" lon="6.31248">
        <ele>322</ele>
        <time>2019-06-04T09:16:11Z</time>
      </trkpt>
      <trkpt lat="43.51432" lon="6.31214">
        <ele>322</ele>
        <time>2019-06-04T09:16:25Z</time>
      </trkpt>
      <trkpt lat="43.51434" lon="6.31204">
        <ele>322</ele>
        <time>2019-06-04T09:16:31Z</time>
      </trkpt>
      <trkpt lat="43.51435" lon="6.31199">
        <ele>322</ele>
        <time>2019-06-04T09:16:37Z</time>
      </trkpt>
      <trkpt lat="43.51437" lon="6.31193">
        <ele>322</ele>
        <time>2019-06-04T09:16:40Z</time>
      </trkpt>
      <trkpt lat="43.51433" lon="6.31185">
        <ele>322</ele>
        <time>2019-06-04T09:16:42Z</time>
      </trkpt>
      <trkpt lat="43.51432" lon="6.31179">
        <ele>322</ele>
        <time>2019-06-04T09:16:44Z</time>
      </trkpt>
      <trkpt lat="43.51437" lon="6.31179">
        <ele>322</ele>
        <time>2019-06-04T09:16:46Z</time>
      </trkpt>
      <trkpt lat="43.51437" lon="6.31173">
        <ele>322</ele>
        <time>2019-06-04T09:16:49Z</time>
      </trkpt>
      <trkpt lat="43.51442" lon="6.31165">
        <ele>321</ele>
        <time>2019-06-04T09:16:55Z</time>
      </trkpt>
      <trkpt lat="43.51442" lon="6.31161">
        <ele>321</ele>
        <time>2019-06-04T09:16:57Z</time>
      </trkpt>
      <trkpt lat="43.51444" lon="6.31157">
        <ele>321</ele>
        <time>2019-06-04T09:17:00Z</time>
      </trkpt>
      <trkpt lat="43.51446" lon="6.31154">
        <ele>321</ele>
        <time>2019-06-04T09:17:04Z</time>
      </trkpt>
      <trkpt lat="43.51447" lon="6.31149">
        <ele>321</ele>
        <time>2019-06-04T09:17:08Z</time>
      </trkpt>
      <trkpt lat="43.51452" lon="6.31141">
        <ele>321</ele>
        <time>2019-06-04T09:17:17Z</time>
      </trkpt>
      <trkpt lat="43.51452" lon="6.31137">
        <ele>321</ele>
        <time>2019-06-04T09:17:18Z</time>
      </trkpt>
      <trkpt lat="43.51451" lon="6.31124">
        <ele>320</ele>
        <time>2019-06-04T09:17:29Z</time>
      </trkpt>
      <trkpt lat="43.51446" lon="6.31113">
        <ele>320</ele>
        <time>2019-06-04T09:17:40Z</time>
      </trkpt>
      <trkpt lat="43.51445" lon="6.3111">
        <ele>320</ele>
        <time>2019-06-04T09:17:43Z</time>
      </trkpt>
      <trkpt lat="43.51442" lon="6.31107">
        <ele>319</ele>
        <time>2019-06-04T09:17:46Z</time>
      </trkpt>
      <trkpt lat="43.51441" lon="6.31105">
        <ele>319</ele>
        <time>2019-06-04T09:17:48Z</time>
      </trkpt>
      <trkpt lat="43.51439" lon="6.31101">
        <ele>319</ele>
        <time>2019-06-04T09:17:53Z</time>
      </trkpt>
      <trkpt lat="43.51436" lon="6.31092">
        <ele>319</ele>
        <time>2019-06-04T09:18:00Z</time>
      </trkpt>
      <trkpt lat="43.51432" lon="6.31086">
        <ele>319</ele>
        <time>2019-06-04T09:18:05Z</time>
      </trkpt>
      <trkpt lat="43.5143" lon="6.31083">
        <ele>319</ele>
        <time>2019-06-04T09:18:08Z</time>
      </trkpt>
      <trkpt lat="43.51428" lon="6.31081">
        <ele>319</ele>
        <time>2019-06-04T09:18:10Z</time>
      </trkpt>
      <trkpt lat="43.51425" lon="6.31077">
        <ele>319</ele>
        <time>2019-06-04T09:18:12Z</time>
      </trkpt>
      <trkpt lat="43.51416" lon="6.31058">
        <ele>318</ele>
        <time>2019-06-04T09:18:21Z</time>
      </trkpt>
      <trkpt lat="43.5141" lon="6.31051">
        <ele>318</ele>
        <time>2019-06-04T09:18:30Z</time>
      </trkpt>
      <trkpt lat="43.51408" lon="6.31048">
        <ele>318</ele>
        <time>2019-06-04T09:18:34Z</time>
      </trkpt>
      <trkpt lat="43.51404" lon="6.31048">
        <ele>318</ele>
        <time>2019-06-04T09:18:37Z</time>
      </trkpt>
      <trkpt lat="43.51399" lon="6.31045">
        <ele>318</ele>
        <time>2019-06-04T09:18:43Z</time>
      </trkpt>
      <trkpt lat="43.51397" lon="6.31041">
        <ele>318</ele>
        <time>2019-06-04T09:18:46Z</time>
      </trkpt>
      <trkpt lat="43.51396" lon="6.31037">
        <ele>318</ele>
        <time>2019-06-04T09:18:48Z</time>
      </trkpt>
      <trkpt lat="43.51386" lon="6.31026">
        <ele>317</ele>
        <time>2019-06-04T09:19:01Z</time>
      </trkpt>
      <trkpt lat="43.51386" lon="6.31003">
        <ele>317</ele>
        <time>2019-06-04T09:19:05Z</time>
      </trkpt>
      <trkpt lat="43.51386" lon="6.30997">
        <ele>317</ele>
        <time>2019-06-04T09:19:09Z</time>
      </trkpt>
      <trkpt lat="43.51385" lon="6.30993">
        <ele>317</ele>
        <time>2019-06-04T09:19:11Z</time>
      </trkpt>
      <trkpt lat="43.51386" lon="6.30989">
        <ele>317</ele>
        <time>2019-06-04T09:19:13Z</time>
      </trkpt>
      <trkpt lat="43.51387" lon="6.3098">
        <ele>317</ele>
        <time>2019-06-04T09:19:19Z</time>
      </trkpt>
      <trkpt lat="43.51388" lon="6.30976">
        <ele>317</ele>
        <time>2019-06-04T09:19:23Z</time>
      </trkpt>
      <trkpt lat="43.51391" lon="6.30964">
        <ele>316</ele>
        <time>2019-06-04T09:19:33Z</time>
      </trkpt>
      <trkpt lat="43.5139" lon="6.30956">
        <ele>316</ele>
        <time>2019-06-04T09:19:39Z</time>
      </trkpt>
      <trkpt lat="43.51393" lon="6.30944">
        <ele>316</ele>
        <time>2019-06-04T09:19:46Z</time>
      </trkpt>
      <trkpt lat="43.51393" lon="6.30938">
        <ele>316</ele>
        <time>2019-06-04T09:19:50Z</time>
      </trkpt>
      <trkpt lat="43.51394" lon="6.30933">
        <ele>316</ele>
        <time>2019-06-04T09:19:55Z</time>
      </trkpt>
      <trkpt lat="43.51393" lon="6.30928">
        <ele>315</ele>
        <time>2019-06-04T09:19:58Z</time>
      </trkpt>
      <trkpt lat="43.51394" lon="6.30923">
        <ele>315</ele>
        <time>2019-06-04T09:20:00Z</time>
      </trkpt>
      <trkpt lat="43.51395" lon="6.30919">
        <ele>315</ele>
        <time>2019-06-04T09:20:02Z</time>
      </trkpt>
      <trkpt lat="43.51396" lon="6.3091">
        <ele>315</ele>
        <time>2019-06-04T09:20:06Z</time>
      </trkpt>
      <trkpt lat="43.51397" lon="6.30905">
        <ele>315</ele>
        <time>2019-06-04T09:20:08Z</time>
      </trkpt>
      <trkpt lat="43.51397" lon="6.30891">
        <ele>315</ele>
        <time>2019-06-04T09:20:19Z</time>
      </trkpt>
      <trkpt lat="43.51401" lon="6.30868">
        <ele>314</ele>
        <time>2019-06-04T09:20:33Z</time>
      </trkpt>
      <trkpt lat="43.51401" lon="6.30864">
        <ele>314</ele>
        <time>2019-06-04T09:20:35Z</time>
      </trkpt>
      <trkpt lat="43.51402" lon="6.30854">
        <ele>314</ele>
        <time>2019-06-04T09:20:39Z</time>
      </trkpt>
      <trkpt lat="43.51404" lon="6.3085">
        <ele>313</ele>
        <time>2019-06-04T09:20:42Z</time>
      </trkpt>
      <trkpt lat="43.51404" lon="6.30846">
        <ele>313</ele>
        <time>2019-06-04T09:20:44Z</time>
      </trkpt>
      <trkpt lat="43.51406" lon="6.30842">
        <ele>313</ele>
        <time>2019-06-04T09:20:48Z</time>
      </trkpt>
      <trkpt lat="43.51408" lon="6.30839">
        <ele>313</ele>
        <time>2019-06-04T09:20:52Z</time>
      </trkpt>
      <trkpt lat="43.51412" lon="6.30835">
        <ele>313</ele>
        <time>2019-06-04T09:21:03Z</time>
      </trkpt>
      <trkpt lat="43.51415" lon="6.30828">
        <ele>312</ele>
        <time>2019-06-04T09:21:08Z</time>
      </trkpt>
      <trkpt lat="43.51416" lon="6.30824">
        <ele>312</ele>
        <time>2019-06-04T09:21:10Z</time>
      </trkpt>
      <trkpt lat="43.51416" lon="6.3082">
        <ele>312</ele>
        <time>2019-06-04T09:21:13Z</time>
      </trkpt>
      <trkpt lat="43.51417" lon="6.30817">
        <ele>312</ele>
        <time>2019-06-04T09:21:17Z</time>
      </trkpt>
      <trkpt lat="43.51419" lon="6.30814">
        <ele>312</ele>
        <time>2019-06-04T09:21:22Z</time>
      </trkpt>
      <trkpt lat="43.51423" lon="6.30811">
        <ele>311</ele>
        <time>2019-06-04T09:21:25Z</time>
      </trkpt>
      <trkpt lat="43.51431" lon="6.30809">
        <ele>311</ele>
        <time>2019-06-04T09:21:32Z</time>
      </trkpt>
      <trkpt lat="43.5145" lon="6.30796">
        <ele>310</ele>
        <time>2019-06-04T09:21:51Z</time>
      </trkpt>
      <trkpt lat="43.51453" lon="6.30793">
        <ele>310</ele>
        <time>2019-06-04T09:21:54Z</time>
      </trkpt>
      <trkpt lat="43.51459" lon="6.30781">
        <ele>310</ele>
        <time>2019-06-04T09:22:05Z</time>
      </trkpt>
      <trkpt lat="43.51461" lon="6.30776">
        <ele>310</ele>
        <time>2019-06-04T09:22:15Z</time>
      </trkpt>
      <trkpt lat="43.51461" lon="6.30772">
        <ele>309</ele>
        <time>2019-06-04T09:22:20Z</time>
      </trkpt>
      <trkpt lat="43.5146" lon="6.30768">
        <ele>309</ele>
        <time>2019-06-04T09:22:23Z</time>
      </trkpt>
      <trkpt lat="43.51457" lon="6.3076">
        <ele>309</ele>
        <time>2019-06-04T09:22:29Z</time>
      </trkpt>
      <trkpt lat="43.51456" lon="6.30756">
        <ele>309</ele>
        <time>2019-06-04T09:22:32Z</time>
      </trkpt>
      <trkpt lat="43.51454" lon="6.30753">
        <ele>309</ele>
        <time>2019-06-04T09:22:34Z</time>
      </trkpt>
      <trkpt lat="43.51449" lon="6.30744">
        <ele>309</ele>
        <time>2019-06-04T09:22:42Z</time>
      </trkpt>
      <trkpt lat="43.51443" lon="6.30731">
        <ele>308</ele>
        <time>2019-06-04T09:22:54Z</time>
      </trkpt>
      <trkpt lat="43.5144" lon="6.30731">
        <ele>308</ele>
        <time>2019-06-04T09:22:57Z</time>
      </trkpt>
      <trkpt lat="43.51417" lon="6.30716">
        <ele>308</ele>
        <time>2019-06-04T09:23:20Z</time>
      </trkpt>
      <trkpt lat="43.51414" lon="6.30716">
        <ele>308</ele>
        <time>2019-06-04T09:23:23Z</time>
      </trkpt>
      <trkpt lat="43.5141" lon="6.30716">
        <ele>308</ele>
        <time>2019-06-04T09:23:26Z</time>
      </trkpt>
      <trkpt lat="43.51397" lon="6.30705">
        <ele>307</ele>
        <time>2019-06-04T09:23:38Z</time>
      </trkpt>
      <trkpt lat="43.51391" lon="6.30703">
        <ele>307</ele>
        <time>2019-06-04T09:23:46Z</time>
      </trkpt>
      <trkpt lat="43.51387" lon="6.30701">
        <ele>307</ele>
        <time>2019-06-04T09:23:49Z</time>
      </trkpt>
      <trkpt lat="43.51386" lon="6.30698">
        <ele>307</ele>
        <time>2019-06-04T09:23:51Z</time>
      </trkpt>
      <trkpt lat="43.51383" lon="6.30695">
        <ele>307</ele>
        <time>2019-06-04T09:23:55Z</time>
      </trkpt>
      <trkpt lat="43.51378" lon="6.3069">
        <ele>307</ele>
        <time>2019-06-04T09:24:03Z</time>
      </trkpt>
      <trkpt lat="43.51373" lon="6.30684">
        <ele>307</ele>
        <time>2019-06-04T09:24:09Z</time>
      </trkpt>
      <trkpt lat="43.51366" lon="6.30671">
        <ele>307</ele>
        <time>2019-06-04T09:24:17Z</time>
      </trkpt>
      <trkpt lat="43.5136" lon="6.30657">
        <ele>306</ele>
        <time>2019-06-04T09:24:28Z</time>
      </trkpt>
      <trkpt lat="43.5136" lon="6.30653">
        <ele>306</ele>
        <time>2019-06-04T09:24:35Z</time>
      </trkpt>
      <trkpt lat="43.51356" lon="6.30648">
        <ele>306</ele>
        <time>2019-06-04T09:24:41Z</time>
      </trkpt>
      <trkpt lat="43.51341" lon="6.30646">
        <ele>306</ele>
        <time>2019-06-04T09:24:53Z</time>
      </trkpt>
      <trkpt lat="43.51334" lon="6.30645">
        <ele>306</ele>
        <time>2019-06-04T09:24:59Z</time>
      </trkpt>
      <trkpt lat="43.51323" lon="6.30647">
        <ele>305</ele>
        <time>2019-06-04T09:25:06Z</time>
      </trkpt>
      <trkpt lat="43.51319" lon="6.30647">
        <ele>305</ele>
        <time>2019-06-04T09:25:12Z</time>
      </trkpt>
      <trkpt lat="43.51316" lon="6.30648">
        <ele>305</ele>
        <time>2019-06-04T09:25:14Z</time>
      </trkpt>
      <trkpt lat="43.51308" lon="6.30645">
        <ele>305</ele>
        <time>2019-06-04T09:25:22Z</time>
      </trkpt>
      <trkpt lat="43.51306" lon="6.30642">
        <ele>305</ele>
        <time>2019-06-04T09:25:25Z</time>
      </trkpt>
      <trkpt lat="43.51299" lon="6.30644">
        <ele>305</ele>
        <time>2019-06-04T09:25:29Z</time>
      </trkpt>
      <trkpt lat="43.51293" lon="6.30642">
        <ele>304</ele>
        <time>2019-06-04T09:25:44Z</time>
      </trkpt>
      <trkpt lat="43.51276" lon="6.30639">
        <ele>303</ele>
        <time>2019-06-04T09:26:01Z</time>
      </trkpt>
      <trkpt lat="43.51274" lon="6.30636">
        <ele>303</ele>
        <time>2019-06-04T09:26:05Z</time>
      </trkpt>
      <trkpt lat="43.51273" lon="6.30632">
        <ele>303</ele>
        <time>2019-06-04T09:26:07Z</time>
      </trkpt>
      <trkpt lat="43.51271" lon="6.30624">
        <ele>303</ele>
        <time>2019-06-04T09:26:11Z</time>
      </trkpt>
      <trkpt lat="43.51268" lon="6.30611">
        <ele>303</ele>
        <time>2019-06-04T09:26:19Z</time>
      </trkpt>
      <trkpt lat="43.51265" lon="6.30605">
        <ele>303</ele>
        <time>2019-06-04T09:26:24Z</time>
      </trkpt>
      <trkpt lat="43.51264" lon="6.306">
        <ele>302</ele>
        <time>2019-06-04T09:26:28Z</time>
      </trkpt>
      <trkpt lat="43.51264" lon="6.30595">
        <ele>302</ele>
        <time>2019-06-04T09:26:31Z</time>
      </trkpt>
      <trkpt lat="43.5126" lon="6.3058">
        <ele>302</ele>
        <time>2019-06-04T09:26:42Z</time>
      </trkpt>
      <trkpt lat="43.51257" lon="6.3058">
        <ele>302</ele>
        <time>2019-06-04T09:26:45Z</time>
      </trkpt>
      <trkpt lat="43.51254" lon="6.30578">
        <ele>302</ele>
        <time>2019-06-04T09:26:47Z</time>
      </trkpt>
      <trkpt lat="43.51251" lon="6.3057">
        <ele>301</ele>
        <time>2019-06-04T09:26:53Z</time>
      </trkpt>
      <trkpt lat="43.51246" lon="6.30563">
        <ele>301</ele>
        <time>2019-06-04T09:26:59Z</time>
      </trkpt>
      <trkpt lat="43.51243" lon="6.3056">
        <ele>301</ele>
        <time>2019-06-04T09:27:03Z</time>
      </trkpt>
      <trkpt lat="43.51241" lon="6.30557">
        <ele>301</ele>
        <time>2019-06-04T09:27:07Z</time>
      </trkpt>
      <trkpt lat="43.51237" lon="6.30555">
        <ele>301</ele>
        <time>2019-06-04T09:27:12Z</time>
      </trkpt>
      <trkpt lat="43.51231" lon="6.30553">
        <ele>300</ele>
        <time>2019-06-04T09:27:16Z</time>
      </trkpt>
      <trkpt lat="43.51228" lon="6.30555">
        <ele>300</ele>
        <time>2019-06-04T09:27:21Z</time>
      </trkpt>
      <trkpt lat="43.51222" lon="6.30559">
        <ele>300</ele>
        <time>2019-06-04T09:27:26Z</time>
      </trkpt>
      <trkpt lat="43.51219" lon="6.3056">
        <ele>300</ele>
        <time>2019-06-04T09:27:28Z</time>
      </trkpt>
      <trkpt lat="43.51216" lon="6.30562">
        <ele>300</ele>
        <time>2019-06-04T09:27:30Z</time>
      </trkpt>
      <trkpt lat="43.51213" lon="6.30564">
        <ele>300</ele>
        <time>2019-06-04T09:27:33Z</time>
      </trkpt>
      <trkpt lat="43.51207" lon="6.30566">
        <ele>299</ele>
        <time>2019-06-04T09:27:38Z</time>
      </trkpt>
      <trkpt lat="43.51204" lon="6.30568">
        <ele>299</ele>
        <time>2019-06-04T09:27:40Z</time>
      </trkpt>
      <trkpt lat="43.512" lon="6.30568">
        <ele>299</ele>
        <time>2019-06-04T09:27:43Z</time>
      </trkpt>
      <trkpt lat="43.51198" lon="6.30565">
        <ele>299</ele>
        <time>2019-06-04T09:27:47Z</time>
      </trkpt>
      <trkpt lat="43.51194" lon="6.30565">
        <ele>299</ele>
        <time>2019-06-04T09:27:51Z</time>
      </trkpt>
      <trkpt lat="43.51188" lon="6.30568">
        <ele>299</ele>
        <time>2019-06-04T09:27:55Z</time>
      </trkpt>
      <trkpt lat="43.51171" lon="6.30572">
        <ele>298</ele>
        <time>2019-06-04T09:28:11Z</time>
      </trkpt>
      <trkpt lat="43.51167" lon="6.3057">
        <ele>298</ele>
        <time>2019-06-04T09:28:15Z</time>
      </trkpt>
      <trkpt lat="43.51164" lon="6.30569">
        <ele>298</ele>
        <time>2019-06-04T09:28:19Z</time>
      </trkpt>
      <trkpt lat="43.5116" lon="6.30563">
        <ele>298</ele>
        <time>2019-06-04T09:28:25Z</time>
      </trkpt>
      <trkpt lat="43.51155" lon="6.3056">
        <ele>298</ele>
        <time>2019-06-04T09:28:32Z</time>
      </trkpt>
      <trkpt lat="43.5114" lon="6.30543">
        <ele>297</ele>
        <time>2019-06-04T09:28:43Z</time>
      </trkpt>
      <trkpt lat="43.51137" lon="6.30542">
        <ele>297</ele>
        <time>2019-06-04T09:28:47Z</time>
      </trkpt>
      <trkpt lat="43.51134" lon="6.30539">
        <ele>297</ele>
        <time>2019-06-04T09:28:50Z</time>
      </trkpt>
      <trkpt lat="43.51128" lon="6.30535">
        <ele>297</ele>
        <time>2019-06-04T09:28:58Z</time>
      </trkpt>
      <trkpt lat="43.51125" lon="6.30533">
        <ele>296</ele>
        <time>2019-06-04T09:29:03Z</time>
      </trkpt>
      <trkpt lat="43.51122" lon="6.30532">
        <ele>296</ele>
        <time>2019-06-04T09:29:08Z</time>
      </trkpt>
      <trkpt lat="43.51119" lon="6.30528">
        <ele>296</ele>
        <time>2019-06-04T09:29:11Z</time>
      </trkpt>
      <trkpt lat="43.51117" lon="6.30525">
        <ele>296</ele>
        <time>2019-06-04T09:29:14Z</time>
      </trkpt>
      <trkpt lat="43.51108" lon="6.30509">
        <ele>295</ele>
        <time>2019-06-04T09:29:27Z</time>
      </trkpt>
      <trkpt lat="43.51092" lon="6.30491">
        <ele>295</ele>
        <time>2019-06-04T09:29:44Z</time>
      </trkpt>
      <trkpt lat="43.51083" lon="6.30486">
        <ele>295</ele>
        <time>2019-06-04T09:29:52Z</time>
      </trkpt>
      <trkpt lat="43.51079" lon="6.30483">
        <ele>294</ele>
        <time>2019-06-04T09:29:55Z</time>
      </trkpt>
      <trkpt lat="43.51072" lon="6.30476">
        <ele>294</ele>
        <time>2019-06-04T09:30:04Z</time>
      </trkpt>
      <trkpt lat="43.5107" lon="6.30472">
        <ele>294</ele>
        <time>2019-06-04T09:30:07Z</time>
      </trkpt>
      <trkpt lat="43.51067" lon="6.30471">
        <ele>294</ele>
        <time>2019-06-04T09:30:15Z</time>
      </trkpt>
    </trkseg>
  </trk>
</gpx>